Observation data for Endee on 11/17/2019      Previous  Date       Current Mesonet Observations  Soil Data  Daily Summary Page  Observations in Plain Language
KEN1 170600Z 04010KT 06/M03 A3004 RMK A01 T00631028  RH  052%=      5-min Rain = 0
KEN1 170601Z 04010KT 06/M03 A3004 RMK A01 T00631028  RH  052%=      5-min Rain = 0
KEN1 170602Z 04010KT 06/M03 A3004 RMK A01 T00621028  RH  052%=      5-min Rain = 0
KEN1 170603Z 04010KT 06/M03 A3004 RMK A01 T00631027  RH  052%=      5-min Rain = 0
KEN1 170604Z 04010KT 06/M03 A3004 RMK A01 T00641027  RH  052%=      5-min Rain = 0
KEN1 170605Z 04011KT 07/M03 A3004 RMK A01 T00651028  RH  052%=      5-min Rain = 0
KEN1 170606Z 04011KT 07/M03 A3004 RMK A01 T00661027  RH  051%=      5-min Rain = 0
KEN1 170607Z 03011KT 07/M03 A3004 RMK A01 T00681027  RH  051%=      5-min Rain = 0
KEN1 170608Z 03011KT 07/M03 A3004 RMK A01 T00691028  RH  050%=      5-min Rain = 0
KEN1 170609Z 03011KT 07/M03 A3005 RMK A01 T00701028  RH  050%=      5-min Rain = 0
KEN1 170610Z 03012KT 07/M03 A3005 RMK A01 T00711028  RH  050%=      5-min Rain = 0
KEN1 170611Z 03012KT 07/M03 A3005 RMK A01 T00721028  RH  049%=      5-min Rain = 0
KEN1 170612Z 03012KT 07/M03 A3005 RMK A01 T00731028  RH  049%=      5-min Rain = 0
KEN1 170613Z 03011KT 08/M03 A3005 RMK A01 T00751028  RH  048%=      5-min Rain = 0
KEN1 170614Z 03012KT 08/M03 A3005 RMK A01 T00751029  RH  048%=      5-min Rain = 0
KEN1 170615Z 03013KT 08/M03 A3005 RMK A01 T00751029  RH  047%=      5-min Rain = 0
KEN1 170616Z 03012KT 08/M03 A3005 RMK A01 T00771029  RH  047%=      5-min Rain = 0
KEN1 170617Z 02012KT 08/M03 A3005 RMK A01 T00791028  RH  047%=      5-min Rain = 0
KEN1 170618Z 03013KT 08/M03 A3005 RMK A01 T00801029  RH  046%=      5-min Rain = 0
KEN1 170619Z 03012KT 08/M03 A3005 RMK A01 T00821029  RH  046%=      5-min Rain = 0
KEN1 170620Z 03013KT 08/M03 A3005 RMK A01 T00831029  RH  045%=      5-min Rain = 0
KEN1 170621Z 03013KT 09/M03 A3005 RMK A01 T00851029  RH  044%=      5-min Rain = 0
KEN1 170622Z 03013KT 09/M03 A3005 RMK A01 T00861029  RH  044%=      5-min Rain = 0
KEN1 170623Z 03013KT 09/M03 A3005 RMK A01 T00871030  RH  044%=      5-min Rain = 0
KEN1 170624Z 03014KT 09/M03 A3005 RMK A01 T00871030  RH  043%=      5-min Rain = 0
KEN1 170625Z 03013KT 09/M03 A3005 RMK A01 T00891030  RH  043%=      5-min Rain = 0
KEN1 170626Z 02013KT 09/M03 A3005 RMK A01 T00891031  RH  043%=      5-min Rain = 0
KEN1 170627Z 02012KT 09/M03 A3006 RMK A01 T00901031  RH  043%=      5-min Rain = 0
KEN1 170628Z 02012KT 09/M03 A3006 RMK A01 T00901031  RH  043%=      5-min Rain = 0
KEN1 170629Z 02012KT 09/M03 A3006 RMK A01 T00891031  RH  043%=      5-min Rain = 0
KEN1 170630Z 02013KT 09/M03 A3006 RMK A01 T00891031  RH  043%=      5-min Rain = 0
KEN1 170631Z 03013KT 09/M03 A3006 RMK A01 T00891031  RH  043%=      5-min Rain = 0
KEN1 170632Z 02012KT 09/M03 A3006 RMK A01 T00891032  RH  042%=      5-min Rain = 0
KEN1 170633Z 02012KT 09/M03 A3006 RMK A01 T00891032  RH  042%=      5-min Rain = 0
KEN1 170634Z 02012KT 09/M03 A3006 RMK A01 T00891032  RH  042%=      5-min Rain = 0
KEN1 170635Z 02012KT 09/M03 A3006 RMK A01 T00881032  RH  043%=      5-min Rain = 0
KEN1 170636Z 02011KT 09/M03 A3007 RMK A01 T00871032  RH  043%=      5-min Rain = 0
KEN1 170637Z 02011KT 09/M03 A3007 RMK A01 T00871032  RH  043%=      5-min Rain = 0
KEN1 170638Z 02012KT 09/M03 A3007 RMK A01 T00851033  RH  043%=      5-min Rain = 0
KEN1 170639Z 02011KT 08/M03 A3007 RMK A01 T00841033  RH  044%=      5-min Rain = 0
KEN1 170640Z 02012KT 09/M03 A3007 RMK A01 T00851032  RH  044%=      5-min Rain = 0
KEN1 170641Z 02013KT 09/M03 A3007 RMK A01 T00851032  RH  043%=      5-min Rain = 0
KEN1 170642Z 02013KT 09/M03 A3007 RMK A01 T00861032  RH  043%=      5-min Rain = 0
KEN1 170643Z 02013KT 09/M03 A3007 RMK A01 T00871032  RH  043%=      5-min Rain = 0
KEN1 170644Z 02013KT 09/M03 A3007 RMK A01 T00871033  RH  043%=      5-min Rain = 0
KEN1 170645Z 02012KT 09/M03 A3007 RMK A01 T00861033  RH  043%=      5-min Rain = 0
KEN1 170646Z 01012KT 09/M03 A3007 RMK A01 T00861033  RH  043%=      5-min Rain = 0
KEN1 170647Z 01011KT 09/M03 A3007 RMK A01 T00851033  RH  043%=      5-min Rain = 0
KEN1 170648Z 02011KT 08/M03 A3007 RMK A01 T00831033  RH  044%=      5-min Rain = 0
KEN1 170649Z 02010KT 08/M03 A3007 RMK A01 T00821033  RH  044%=      5-min Rain = 0
KEN1 170650Z 03011KT 08/M03 A3007 RMK A01 T00811033  RH  044%=      5-min Rain = 0
KEN1 170651Z 03011KT 08/M03 A3007 RMK A01 T00811033  RH  044%=      5-min Rain = 0
KEN1 170652Z 02012KT 08/M03 A3007 RMK A01 T00811033  RH  044%=      5-min Rain = 0
KEN1 170653Z 02012KT 08/M03 A3007 RMK A01 T00821033  RH  044%=      5-min Rain = 0
KEN1 170654Z 02012KT 08/M03 A3007 RMK A01 T00821033  RH  044%=      5-min Rain = 0
KEN1 170655Z 02012KT 08/M03 A3008 RMK A01 T00831033  RH  044%=      5-min Rain = 0
KEN1 170656Z 02012KT 08/M03 A3008 RMK A01 T00841033  RH  044%=      5-min Rain = 0
KEN1 170657Z 02013KT 08/M03 A3008 RMK A01 T00841033  RH  044%=      5-min Rain = 0
KEN1 170658Z 02012KT 09/M03 A3008 RMK A01 T00851033  RH  043%=      5-min Rain = 0
KEN1 170659Z 02012KT 09/M03 A3008 RMK A01 T00851033  RH  043%=      5-min Rain = 0
KEN1 170700Z 02012KT 09/M03 A3008 RMK A01 T00851033  RH  043%=      5-min Rain = 0
KEN1 170701Z 02013KT 09/M03 A3008 RMK A01 T00861033  RH  043%=      5-min Rain = 0
KEN1 170702Z 02012KT 09/M03 A3008 RMK A01 T00861033  RH  043%=      5-min Rain = 0
KEN1 170703Z 02012KT 09/M03 A3008 RMK A01 T00861033  RH  043%=      5-min Rain = 0
KEN1 170704Z 02012KT 09/M03 A3008 RMK A01 T00861033  RH  043%=      5-min Rain = 0
KEN1 170705Z 02011KT 09/M03 A3008 RMK A01 T00861033  RH  043%=      5-min Rain = 0
KEN1 170706Z 03012KT 09/M03 A3008 RMK A01 T00871033  RH  043%=      5-min Rain = 0
KEN1 170707Z 03012KT 09/M03 A3007 RMK A01 T00871033  RH  043%=      5-min Rain = 0
KEN1 170708Z 03013KT 09/M03 A3007 RMK A01 T00871033  RH  043%=      5-min Rain = 0
KEN1 170709Z 03012KT 09/M03 A3007 RMK A01 T00871033  RH  043%=      5-min Rain = 0
KEN1 170710Z 03013KT 09/M03 A3008 RMK A01 T00871033  RH  043%=      5-min Rain = 0
KEN1 170711Z 03013KT 09/M03 A3007 RMK A01 T00871033  RH  043%=      5-min Rain = 0
KEN1 170712Z 03012KT 09/M03 A3008 RMK A01 T00881033  RH  043%=      5-min Rain = 0
KEN1 170713Z 03013KT 09/M03 A3008 RMK A01 T00881033  RH  042%=      5-min Rain = 0
KEN1 170714Z 03015KT 09/M03 A3008 RMK A01 T00891032  RH  042%=      5-min Rain = 0
KEN1 170715Z 02015G20KT 09/M03 A3008 RMK A01 T00901032  RH  042%=      5-min Rain = 0
KEN1 170716Z 02015KT 09/M03 A3008 RMK A01 T00911032  RH  042%=      5-min Rain = 0
KEN1 170717Z 02015KT 09/M03 A3009 RMK A01 T00921031  RH  042%=      5-min Rain = 0
KEN1 170718Z 02015KT 09/M03 A3009 RMK A01 T00941031  RH  042%=      5-min Rain = 0
KEN1 170719Z 03015KT 09/M03 A3009 RMK A01 T00941031  RH  041%=      5-min Rain = 0
KEN1 170720Z 02018G24KT 09/M03 A3009 RMK A01 T00941030  RH  042%=      5-min Rain = 0
KEN1 170721Z 02020G25KT 10/M03 A3009 RMK A01 T00961029  RH  041%=      5-min Rain = 0
KEN1 170722Z 03020G26KT 10/M03 A3009 RMK A01 T00991028  RH  041%=      5-min Rain = 0
KEN1 170723Z 03020KT 10/M03 A3009 RMK A01 T01021028  RH  040%=      5-min Rain = 0
KEN1 170724Z 02020KT 10/M03 A3009 RMK A01 T01021028  RH  040%=      5-min Rain = 0
KEN1 170725Z 02021G26KT 10/M03 A3009 RMK A01 T01021028  RH  040%=      5-min Rain = 0
KEN1 170726Z 03021G27KT 10/M03 A3009 RMK A01 T01031027  RH  040%=      5-min Rain = 0
KEN1 170727Z 02021KT 10/M03 A3009 RMK A01 T01031027  RH  040%=      5-min Rain = 0
KEN1 170728Z 02018KT 10/M03 A3009 RMK A01 T01041027  RH  040%=      5-min Rain = 0
KEN1 170729Z 02018KT 10/M03 A3009 RMK A01 T01041027  RH  040%=      5-min Rain = 0
KEN1 170730Z 02018KT 10/M03 A3009 RMK A01 T01031027  RH  040%=      5-min Rain = 0
KEN1 170731Z 02018KT 10/M03 A301 RMK A01 T01021027  RH  040%=      5-min Rain = 0
KEN1 170732Z 02015KT 10/M03 A301 RMK A01 T01021026  RH  041%=      5-min Rain = 0
KEN1 170733Z 02018KT 10/M03 A301 RMK A01 T01011026  RH  041%=      5-min Rain = 0
KEN1 170734Z 02018KT 10/M03 A3009 RMK A01 T01011026  RH  041%=      5-min Rain = 0
KEN1 170735Z 02016KT 10/M03 A3009 RMK A01 T01011026  RH  041%=      5-min Rain = 0
KEN1 170736Z 02015KT 10/M03 A3009 RMK A01 T01011026  RH  041%=      5-min Rain = 0
KEN1 170737Z 02015KT 10/M03 A3009 RMK A01 T01001026  RH  041%=      5-min Rain = 0
KEN1 170738Z 02017KT 10/M03 A3009 RMK A01 T00991026  RH  041%=      5-min Rain = 0
KEN1 170739Z 02017G22KT 10/M03 A3009 RMK A01 T00991026  RH  041%=      5-min Rain = 0
KEN1 170740Z 01017G22KT 10/M03 A3009 RMK A01 T01001026  RH  041%=      5-min Rain = 0
KEN1 170741Z 01019KT 10/M03 A301 RMK A01 T01001027  RH  041%=      5-min Rain = 0
KEN1 170742Z 01020KT 10/M03 A301 RMK A01 T01001027  RH  041%=      5-min Rain = 0
KEN1 170743Z 01022KT 10/M03 A301 RMK A01 T00991028  RH  041%=      5-min Rain = 0
KEN1 170744Z 01021KT 10/M03 A3011 RMK A01 T00991028  RH  041%=      5-min Rain = 0
KEN1 170745Z 01023G28KT 10/M03 A301 RMK A01 T00991028  RH  041%=      5-min Rain = 0
KEN1 170746Z 01023G30KT 10/M03 A301 RMK A01 T00981027  RH  041%=      5-min Rain = 0
KEN1 170747Z 02024G30KT 10/M03 A3011 RMK A01 T00971027  RH  042%=      5-min Rain = 0
KEN1 170748Z 01025G30KT 10/M03 A3011 RMK A01 T00961026  RH  042%=      5-min Rain = 0
KEN1 170749Z 01025KT 10/M03 A3011 RMK A01 T00961025  RH  043%=      5-min Rain = 0
KEN1 170750Z 01024KT 10/M03 A3011 RMK A01 T00951025  RH  043%=      5-min Rain = 0
KEN1 170751Z 01022KT 09/M03 A3012 RMK A01 T00941025  RH  043%=      5-min Rain = 0
KEN1 170752Z 01025G31KT 09/M03 A3012 RMK A01 T00931025  RH  043%=      5-min Rain = 0
KEN1 170753Z 01024KT 09/M02 A3011 RMK A01 T00931024  RH  044%=      5-min Rain = 0
KEN1 170754Z 02026KT 09/M02 A3011 RMK A01 T00931024  RH  044%=      5-min Rain = 0
KEN1 170755Z 01025KT 09/M02 A3012 RMK A01 T00921024  RH  044%=      5-min Rain = 0
KEN1 170756Z 01022G27KT 09/M02 A3012 RMK A01 T00911023  RH  044%=      5-min Rain = 0
KEN1 170757Z 01023KT 09/M02 A3012 RMK A01 T00901023  RH  045%=      5-min Rain = 0
KEN1 170758Z 01021G28KT 09/M02 A3013 RMK A01 T00891023  RH  045%=      5-min Rain = 0
KEN1 170759Z 01021KT 09/M02 A3012 RMK A01 T00891023  RH  046%=      5-min Rain = 0
KEN1 170800Z 01024KT 09/M02 A3012 RMK A01 T00881022  RH  046%=      5-min Rain = 0
KEN1 170801Z 02021G28KT 09/M02 A3012 RMK A01 T00881021  RH  046%=      5-min Rain = 0
KEN1 170802Z 02022G34KT 09/M02 A3012 RMK A01 T00871022  RH  046%=      5-min Rain = 0
KEN1 170803Z 02025G31KT 09/M02 A3012 RMK A01 T00871021  RH  047%=      5-min Rain = 0
KEN1 170804Z 02025G30KT 09/M02 A3012 RMK A01 T00871021  RH  047%=      5-min Rain = 0
KEN1 170805Z 02024G29KT 09/M02 A3012 RMK A01 T00871021  RH  047%=      5-min Rain = 0
KEN1 170806Z 02021KT 09/M02 A3012 RMK A01 T00871020  RH  047%=      5-min Rain = 0
KEN1 170807Z 02020KT 09/M02 A3012 RMK A01 T00861020  RH  047%=      5-min Rain = 0
KEN1 170808Z 02022KT 09/M02 A3012 RMK A01 T00851020  RH  047%=      5-min Rain = 0
KEN1 170809Z 02019G24KT 08/M02 A3012 RMK A01 T00841020  RH  048%=      5-min Rain = 0
KEN1 170810Z 02018KT 08/M02 A3012 RMK A01 T00831020  RH  048%=      5-min Rain = 0
KEN1 170811Z 02018KT 08/M02 A3012 RMK A01 T00831020  RH  049%=      5-min Rain = 0
KEN1 170812Z 02020KT 08/M02 A3012 RMK A01 T00821019  RH  049%=      5-min Rain = 0
KEN1 170813Z 02019G24KT 08/M02 A3012 RMK A01 T00821019  RH  049%=      5-min Rain = 0
KEN1 170814Z 02016G23KT 08/M02 A3012 RMK A01 T00821019  RH  049%=      5-min Rain = 0
KEN1 170815Z 02019KT 08/M02 A3012 RMK A01 T00811019  RH  049%=      5-min Rain = 0
KEN1 170816Z 02018KT 08/M02 A3012 RMK A01 T00811019  RH  049%=      5-min Rain = 0
KEN1 170817Z 02021G26KT 08/M02 A3012 RMK A01 T00801019  RH  050%=      5-min Rain = 0
KEN1 170818Z 03022KT 08/M02 A3012 RMK A01 T00801019  RH  050%=      5-min Rain = 0
KEN1 170819Z 03018G23KT 08/M02 A3012 RMK A01 T00811018  RH  050%=      5-min Rain = 0
KEN1 170820Z 02018KT 08/M02 A3012 RMK A01 T00801019  RH  050%=      5-min Rain = 0
KEN1 170821Z 02015KT 08/M02 A3013 RMK A01 T00801019  RH  050%=      5-min Rain = 0
KEN1 170822Z 03018KT 08/M02 A3012 RMK A01 T00791019  RH  050%=      5-min Rain = 0
KEN1 170823Z 02018G24KT 08/M02 A3013 RMK A01 T00791018  RH  050%=      5-min Rain = 0
KEN1 170824Z 03017KT 08/M02 A3013 RMK A01 T00791018  RH  050%=      5-min Rain = 0
KEN1 170825Z 03015G20KT 08/M02 A3013 RMK A01 T00781018  RH  050%=      5-min Rain = 0
KEN1 170826Z 03015G21KT 08/M02 A3013 RMK A01 T00771019  RH  051%=      5-min Rain = 0
KEN1 170827Z 02016KT 08/M02 A3013 RMK A01 T00771018  RH  051%=      5-min Rain = 0
KEN1 170828Z 02014KT 08/M02 A3013 RMK A01 T00761018  RH  051%=      5-min Rain = 0
KEN1 170829Z 01014KT 08/M02 A3014 RMK A01 T00761018  RH  051%=      5-min Rain = 0
KEN1 170830Z 01015KT 07/M02 A3014 RMK A01 T00741018  RH  052%=      5-min Rain = 0
KEN1 170831Z 02014KT 07/M02 A3014 RMK A01 T00741018  RH  052%=      5-min Rain = 0
KEN1 170832Z 02014KT 07/M02 A3014 RMK A01 T00741018  RH  052%=      5-min Rain = 0
KEN1 170833Z 02016KT 07/M02 A3014 RMK A01 T00741018  RH  052%=      5-min Rain = 0
KEN1 170834Z 02015KT 08/M02 A3014 RMK A01 T00751017  RH  052%=      5-min Rain = 0
KEN1 170835Z 02017KT 08/M02 A3014 RMK A01 T00751017  RH  052%=      5-min Rain = 0
KEN1 170836Z 02014KT 08/M02 A3014 RMK A01 T00751017  RH  052%=      5-min Rain = 0
KEN1 170837Z 02014KT 07/M02 A3014 RMK A01 T00741017  RH  052%=      5-min Rain = 0
KEN1 170838Z 02016KT 07/M02 A3014 RMK A01 T00731017  RH  053%=      5-min Rain = 0
KEN1 170839Z 02015KT 07/M02 A3014 RMK A01 T00741016  RH  053%=      5-min Rain = 0
KEN1 170840Z 02016KT 07/M02 A3014 RMK A01 T00741016  RH  053%=      5-min Rain = 0
KEN1 170841Z 02014KT 07/M02 A3014 RMK A01 T00741016  RH  053%=      5-min Rain = 0
KEN1 170842Z 02015KT 07/M02 A3014 RMK A01 T00741016  RH  053%=      5-min Rain = 0
KEN1 170843Z 02013KT 07/M02 A3014 RMK A01 T00731016  RH  053%=      5-min Rain = 0
KEN1 170844Z 02015KT 07/M02 A3014 RMK A01 T00721017  RH  053%=      5-min Rain = 0
KEN1 170845Z 02014KT 07/M02 A3014 RMK A01 T00721016  RH  053%=      5-min Rain = 0
KEN1 170846Z 02015KT 07/M02 A3014 RMK A01 T00721016  RH  054%=      5-min Rain = 0
KEN1 170847Z 02013KT 07/M02 A3014 RMK A01 T00721016  RH  054%=      5-min Rain = 0
KEN1 170848Z 02015KT 07/M02 A3014 RMK A01 T00721016  RH  054%=      5-min Rain = 0
KEN1 170849Z 02015KT 07/M02 A3014 RMK A01 T00721015  RH  054%=      5-min Rain = 0
KEN1 170850Z 02013KT 07/M02 A3015 RMK A01 T00711015  RH  054%=      5-min Rain = 0
KEN1 170851Z 02012KT 07/M02 A3015 RMK A01 T00711015  RH  054%=      5-min Rain = 0
KEN1 170852Z 02015KT 07/M02 A3015 RMK A01 T00701015  RH  055%=      5-min Rain = 0
KEN1 170853Z 02014KT 07/M02 A3015 RMK A01 T00701015  RH  055%=      5-min Rain = 0
KEN1 170854Z 02012KT 07/M01 A3015 RMK A01 T00701014  RH  055%=      5-min Rain = 0
KEN1 170855Z 02014G21KT 07/M02 A3015 RMK A01 T00691015  RH  055%=      5-min Rain = 0
KEN1 170856Z 02015KT 07/M01 A3015 RMK A01 T00691014  RH  055%=      5-min Rain = 0
KEN1 170857Z 02014KT 07/M01 A3015 RMK A01 T00701014  RH  055%=      5-min Rain = 0
KEN1 170858Z 02015G20KT 07/M01 A3015 RMK A01 T00691014  RH  055%=      5-min Rain = 0
KEN1 170859Z 02012KT 07/M01 A3015 RMK A01 T00691013  RH  056%=      5-min Rain = 0
KEN1 170900Z 02014KT 07/M01 A3015 RMK A01 T00691013  RH  056%=      5-min Rain = 0
KEN1 170901Z 02013KT 07/M01 A3015 RMK A01 T00691013  RH  056%=      5-min Rain = 0
KEN1 170902Z 02014KT 07/M01 A3015 RMK A01 T00681013  RH  056%=      5-min Rain = 0
KEN1 170903Z 02015KT 07/M01 A3015 RMK A01 T00681013  RH  056%=      5-min Rain = 0
KEN1 170904Z 02012KT 07/M01 A3015 RMK A01 T00681013  RH  056%=      5-min Rain = 0
KEN1 170905Z 02011KT 07/M01 A3015 RMK A01 T00681013  RH  057%=      5-min Rain = 0
KEN1 170906Z 02013KT 07/M01 A3015 RMK A01 T00671012  RH  057%=      5-min Rain = 0
KEN1 170907Z 02012KT 07/M01 A3015 RMK A01 T00661012  RH  057%=      5-min Rain = 0
KEN1 170908Z 02013KT 07/M01 A3015 RMK A01 T00661012  RH  057%=      5-min Rain = 0
KEN1 170909Z 02014KT 07/M01 A3015 RMK A01 T00671011  RH  057%=      5-min Rain = 0
KEN1 170910Z 02013KT 07/M01 A3015 RMK A01 T00671011  RH  057%=      5-min Rain = 0
KEN1 170911Z 02014KT 07/M01 A3015 RMK A01 T00661011  RH  058%=      5-min Rain = 0
KEN1 170912Z 02014KT 07/M01 A3015 RMK A01 T00661011  RH  058%=      5-min Rain = 0
KEN1 170913Z 02016KT 07/M01 A3015 RMK A01 T00671010  RH  058%=      5-min Rain = 0
KEN1 170914Z 02013KT 07/M01 A3015 RMK A01 T00681010  RH  058%=      5-min Rain = 0
KEN1 170915Z 02011KT 07/M01 A3015 RMK A01 T00671011  RH  058%=      5-min Rain = 0
KEN1 170916Z 02012KT 07/M01 A3015 RMK A01 T00661011  RH  058%=      5-min Rain = 0
KEN1 170917Z 02013KT 07/M01 A3015 RMK A01 T00661011  RH  058%=      5-min Rain = 0
KEN1 170918Z 02012KT 07/M01 A3015 RMK A01 T00651010  RH  058%=      5-min Rain = 0
KEN1 170919Z 02012KT 07/M01 A3015 RMK A01 T00651010  RH  059%=      5-min Rain = 0
KEN1 170920Z 02012KT 06/M01 A3015 RMK A01 T00641011  RH  059%=      5-min Rain = 0
KEN1 170921Z 02011KT 06/M01 A3015 RMK A01 T00641011  RH  059%=      5-min Rain = 0
KEN1 170922Z 01012KT 06/M01 A3016 RMK A01 T00641010  RH  059%=      5-min Rain = 0
KEN1 170923Z 02012KT 06/M01 A3016 RMK A01 T00641010  RH  059%=      5-min Rain = 0
KEN1 170924Z 02012KT 06/M01 A3016 RMK A01 T00641010  RH  059%=      5-min Rain = 0
KEN1 170925Z 02011KT 06/M01 A3016 RMK A01 T00641010  RH  059%=      5-min Rain = 0
KEN1 170926Z 01010KT 06/M01 A3016 RMK A01 T00641010  RH  059%=      5-min Rain = 0
KEN1 170927Z 01010KT 06/M01 A3016 RMK A01 T00631010  RH  059%=      5-min Rain = 0
KEN1 170928Z 01011KT 06/M01 A3016 RMK A01 T00621010  RH  060%=      5-min Rain = 0
KEN1 170929Z 01012KT 06/M01 A3016 RMK A01 T00621010  RH  060%=      5-min Rain = 0
KEN1 170930Z 01011KT 06/M01 A3016 RMK A01 T00621010  RH  060%=      5-min Rain = 0
KEN1 170931Z 01010KT 06/M01 A3016 RMK A01 T00621010  RH  060%=      5-min Rain = 0
KEN1 170932Z 01010KT 06/M01 A3016 RMK A01 T00601011  RH  060%=      5-min Rain = 0
KEN1 170933Z 01010KT 06/M01 A3016 RMK A01 T00601011  RH  061%=      5-min Rain = 0
KEN1 170934Z 01009KT 06/M01 A3016 RMK A01 T00581011  RH  061%=      5-min Rain = 0
KEN1 170935Z 01009KT 06/M01 A3016 RMK A01 T00581011  RH  061%=      5-min Rain = 0
KEN1 170936Z 01009KT 06/M01 A3016 RMK A01 T00571011  RH  061%=      5-min Rain = 0
KEN1 170937Z 01008KT 06/M01 A3016 RMK A01 T00561011  RH  062%=      5-min Rain = 0
KEN1 170938Z 01008KT 06/M01 A3016 RMK A01 T00551012  RH  062%=      5-min Rain = 0
KEN1 170939Z 01008KT 06/M01 A3016 RMK A01 T00551011  RH  062%=      5-min Rain = 0
KEN1 170940Z 01009KT 05/M01 A3016 RMK A01 T00541012  RH  063%=      5-min Rain = 0
KEN1 170941Z 01008KT 05/M01 A3016 RMK A01 T00541011  RH  063%=      5-min Rain = 0
KEN1 170942Z 01008KT 05/M01 A3016 RMK A01 T00541011  RH  063%=      5-min Rain = 0
KEN1 170943Z 01008KT 05/M01 A3016 RMK A01 T00541011  RH  063%=      5-min Rain = 0
KEN1 170944Z 01008KT 05/M01 A3016 RMK A01 T00531012  RH  063%=      5-min Rain = 0
KEN1 170945Z 01008KT 05/M01 A3016 RMK A01 T00531011  RH  063%=      5-min Rain = 0
KEN1 170946Z 01008KT 05/M01 A3016 RMK A01 T00531011  RH  063%=      5-min Rain = 0
KEN1 170947Z 00008KT 05/M01 A3016 RMK A01 T00531010  RH  063%=      5-min Rain = 0
KEN1 170948Z 01008KT 05/M01 A3016 RMK A01 T00531011  RH  063%=      5-min Rain = 0
KEN1 170949Z 01007KT 05/M01 A3016 RMK A01 T00531011  RH  064%=      5-min Rain = 0
KEN1 170950Z 01007KT 05/M01 A3017 RMK A01 T00511012  RH  064%=      5-min Rain = 0
KEN1 170951Z 01008KT 05/M01 A3017 RMK A01 T00511011  RH  064%=      5-min Rain = 0
KEN1 170952Z 01009KT 05/M01 A3017 RMK A01 T00511011  RH  064%=      5-min Rain = 0
KEN1 170953Z 01008KT 05/M01 A3017 RMK A01 T00521010  RH  064%=      5-min Rain = 0
KEN1 170954Z 00008KT 05/M01 A3017 RMK A01 T00531009  RH  064%=      5-min Rain = 0
KEN1 170955Z 36008KT 05/M01 A3017 RMK A01 T00531010  RH  064%=      5-min Rain = 0
KEN1 170956Z 00008KT 05/M01 A3017 RMK A01 T00531010  RH  064%=      5-min Rain = 0
KEN1 170957Z 36007KT 05/M01 A3017 RMK A01 T00521010  RH  064%=      5-min Rain = 0
KEN1 170958Z 36008KT 05/M01 A3017 RMK A01 T00521010  RH  064%=      5-min Rain = 0
KEN1 170959Z 36008KT 05/M01 A3017 RMK A01 T00521010  RH  064%=      5-min Rain = 0
KEN1 171000Z 36008KT 05/M01 A3017 RMK A01 T00521010  RH  064%=      5-min Rain = 0
KEN1 171001Z 36007KT 05/M01 A3017 RMK A01 T00511010  RH  065%=      5-min Rain = 0
KEN1 171002Z 36006KT 05/M01 A3017 RMK A01 T00511010  RH  065%=      5-min Rain = 0
KEN1 171003Z 35006KT 05/M01 A3017 RMK A01 T00501011  RH  065%=      5-min Rain = 0
KEN1 171004Z 35006KT 05/M01 A3017 RMK A01 T00491011  RH  065%=      5-min Rain = 0
KEN1 171005Z 36006KT 05/M01 A3017 RMK A01 T00481011  RH  066%=      5-min Rain = 0
KEN1 171006Z 36006KT 05/M01 A3017 RMK A01 T00471011  RH  066%=      5-min Rain = 0
KEN1 171007Z 35007KT 05/M01 A3017 RMK A01 T00471011  RH  066%=      5-min Rain = 0
KEN1 171008Z 36006KT 05/M01 A3017 RMK A01 T00471011  RH  066%=      5-min Rain = 0
KEN1 171009Z 35005KT 05/M01 A3017 RMK A01 T00471011  RH  066%=      5-min Rain = 0
KEN1 171010Z 36005KT 05/M01 A3017 RMK A01 T00461011  RH  066%=      5-min Rain = 0
KEN1 171011Z 36006KT 05/M01 A3017 RMK A01 T00461011  RH  067%=      5-min Rain = 0
KEN1 171012Z 36007KT 05/M01 A3017 RMK A01 T00451011  RH  067%=      5-min Rain = 0
KEN1 171013Z 00006KT 05/M01 A3018 RMK A01 T00451011  RH  067%=      5-min Rain = 0
KEN1 171014Z 36006KT 05/M01 A3018 RMK A01 T00451011  RH  067%=      5-min Rain = 0
KEN1 171015Z 36006KT 04/M01 A3018 RMK A01 T00441012  RH  067%=      5-min Rain = 0
KEN1 171016Z 35005KT 04/M01 A3018 RMK A01 T00421013  RH  067%=      5-min Rain = 0
KEN1 171017Z 35005KT 04/M01 A3018 RMK A01 T00411013  RH  068%=      5-min Rain = 0
KEN1 171018Z 35006KT 04/M01 A3018 RMK A01 T00401013  RH  068%=      5-min Rain = 0
KEN1 171019Z 35006KT 04/M01 A3018 RMK A01 T00391013  RH  069%=      5-min Rain = 0
KEN1 171020Z 35006KT 04/M01 A3018 RMK A01 T00391012  RH  069%=      5-min Rain = 0
KEN1 171021Z 35007KT 04/M01 A3018 RMK A01 T00391011  RH  070%=      5-min Rain = 0
KEN1 171022Z 35007KT 04/M01 A3018 RMK A01 T00391011  RH  069%=      5-min Rain = 0
KEN1 171023Z 35007KT 04/M01 A3018 RMK A01 T00401011  RH  069%=      5-min Rain = 0
KEN1 171024Z 35007KT 04/M01 A3018 RMK A01 T00401011  RH  069%=      5-min Rain = 0
KEN1 171025Z 35006KT 04/M01 A3018 RMK A01 T00411010  RH  069%=      5-min Rain = 0
KEN1 171026Z 35006KT 04/M01 A3018 RMK A01 T00411010  RH  069%=      5-min Rain = 0
KEN1 171027Z 35005KT 04/M01 A3018 RMK A01 T00411011  RH  069%=      5-min Rain = 0
KEN1 171028Z 35006KT 04/M01 A3018 RMK A01 T00401011  RH  070%=      5-min Rain = 0
KEN1 171029Z 35006KT 04/M01 A3018 RMK A01 T00401011  RH  070%=      5-min Rain = 0
KEN1 171030Z 35006KT 04/M01 A3018 RMK A01 T00401011  RH  070%=      5-min Rain = 0
KEN1 171031Z 35005KT 04/M01 A3018 RMK A01 T00401010  RH  070%=      5-min Rain = 0
KEN1 171032Z 35005KT 04/M01 A3018 RMK A01 T00391011  RH  070%=      5-min Rain = 0
KEN1 171033Z 35005KT 04/M01 A3018 RMK A01 T00381012  RH  070%=      5-min Rain = 0
KEN1 171034Z 35005KT 04/M01 A3018 RMK A01 T00371012  RH  070%=      5-min Rain = 0
KEN1 171035Z 35005KT 04/M01 A3018 RMK A01 T00361012  RH  071%=      5-min Rain = 0
KEN1 171036Z 35005KT 04/M01 A3018 RMK A01 T00361012  RH  071%=      5-min Rain = 0
KEN1 171037Z 35004KT 04/M01 A3018 RMK A01 T00361012  RH  071%=      5-min Rain = 0
KEN1 171038Z 00005KT 04/M01 A3018 RMK A01 T00351013  RH  071%=      5-min Rain = 0
KEN1 171039Z 00006KT 03/M01 A3018 RMK A01 T00341012  RH  072%=      5-min Rain = 0
KEN1 171040Z 00005KT 03/M01 A3018 RMK A01 T00341012  RH  072%=      5-min Rain = 0
KEN1 171041Z 00006KT 03/M01 A3018 RMK A01 T00341012  RH  072%=      5-min Rain = 0
KEN1 171042Z 00006KT 03/M01 A3018 RMK A01 T00331012  RH  072%=      5-min Rain = 0
KEN1 171043Z 00006KT 03/M01 A3018 RMK A01 T00321013  RH  072%=      5-min Rain = 0
KEN1 171044Z 00007KT 03/M01 A3018 RMK A01 T00321012  RH  073%=      5-min Rain = 0
KEN1 171045Z 00006KT 03/M01 A3018 RMK A01 T00321012  RH  073%=      5-min Rain = 0
KEN1 171046Z 00006KT 03/M01 A3018 RMK A01 T00321011  RH  074%=      5-min Rain = 0
KEN1 171047Z 36006KT 03/M01 A3018 RMK A01 T00331010  RH  074%=      5-min Rain = 0
KEN1 171048Z 36006KT 03/M01 A3018 RMK A01 T00331010  RH  073%=      5-min Rain = 0
KEN1 171049Z 36006KT 03/M01 A3019 RMK A01 T00331010  RH  073%=      5-min Rain = 0
KEN1 171050Z 36006KT 03/M01 A3019 RMK A01 T00331009  RH  074%=      5-min Rain = 0
KEN1 171051Z 36006KT 03/M01 A3019 RMK A01 T00341009  RH  074%=      5-min Rain = 0
KEN1 171052Z 36006KT 03/M01 A3018 RMK A01 T00341009  RH  073%=      5-min Rain = 0
KEN1 171053Z 36006KT 04/M01 A3019 RMK A01 T00351008  RH  073%=      5-min Rain = 0
KEN1 171054Z 36007KT 04/M01 A3019 RMK A01 T00351008  RH  073%=      5-min Rain = 0
KEN1 171055Z 36006KT 04/M01 A3019 RMK A01 T00351008  RH  073%=      5-min Rain = 0
KEN1 171056Z 36007KT 04/M01 A3019 RMK A01 T00351008  RH  073%=      5-min Rain = 0
KEN1 171057Z 36007KT 04/M01 A3019 RMK A01 T00361008  RH  073%=      5-min Rain = 0
KEN1 171058Z 36007KT 04/M01 A3019 RMK A01 T00361008  RH  073%=      5-min Rain = 0
KEN1 171059Z 00007KT 04/M01 A3019 RMK A01 T00361008  RH  073%=      5-min Rain = 0
KEN1 171100Z 00007KT 04/M01 A3019 RMK A01 T00361008  RH  073%=      5-min Rain = 0
KEN1 171101Z 00007KT 04/M01 A3019 RMK A01 T00361008  RH  073%=      5-min Rain = 0
KEN1 171102Z 00007KT 04/M01 A3019 RMK A01 T00351008  RH  073%=      5-min Rain = 0
KEN1 171103Z 00007KT 04/M01 A3019 RMK A01 T00351008  RH  073%=      5-min Rain = 0
KEN1 171104Z 00007KT 03/M01 A3019 RMK A01 T00341009  RH  073%=      5-min Rain = 0
KEN1 171105Z 00007KT 03/M01 A3019 RMK A01 T00331009  RH  074%=      5-min Rain = 0
KEN1 171106Z 00007KT 03/M01 A3019 RMK A01 T00331009  RH  074%=      5-min Rain = 0
KEN1 171107Z 01007KT 03/M01 A3019 RMK A01 T00321009  RH  074%=      5-min Rain = 0
KEN1 171108Z 00007KT 03/M01 A3019 RMK A01 T00321010  RH  074%=      5-min Rain = 0
KEN1 171109Z 01007KT 03/M01 A3019 RMK A01 T00311010  RH  074%=      5-min Rain = 0
KEN1 171110Z 00008KT 03/M01 A3019 RMK A01 T00311009  RH  075%=      5-min Rain = 0
KEN1 171111Z 01008KT 03/M01 A3019 RMK A01 T00311009  RH  075%=      5-min Rain = 0
KEN1 171112Z 00007KT 03/M01 A3019 RMK A01 T00321009  RH  075%=      5-min Rain = 0
KEN1 171113Z 00008KT 03/M01 A3019 RMK A01 T00321009  RH  074%=      5-min Rain = 0
KEN1 171114Z 00007KT 03/M01 A3019 RMK A01 T00311009  RH  075%=      5-min Rain = 0
KEN1 171115Z 00008KT 03/M01 A3019 RMK A01 T00311009  RH  075%=      5-min Rain = 0
KEN1 171116Z 00008KT 03/M01 A3019 RMK A01 T00311009  RH  075%=      5-min Rain = 0
KEN1 171117Z 00008KT 03/M01 A3019 RMK A01 T00311009  RH  075%=      5-min Rain = 0
KEN1 171118Z 00008KT 03/M01 A3019 RMK A01 T00311009  RH  075%=      5-min Rain = 0
KEN1 171119Z 00008KT 03/M01 A3019 RMK A01 T00311009  RH  075%=      5-min Rain = 0
KEN1 171120Z 00008KT 03/M01 A3019 RMK A01 T00311009  RH  075%=      5-min Rain = 0
KEN1 171121Z 36007KT 03/M01 A3019 RMK A01 T00311009  RH  075%=      5-min Rain = 0
KEN1 171122Z 36007KT 03/M01 A3019 RMK A01 T00301009  RH  075%=      5-min Rain = 0
KEN1 171123Z 36007KT 03/M01 A3019 RMK A01 T00301009  RH  075%=      5-min Rain = 0
KEN1 171124Z 36007KT 03/M01 A3019 RMK A01 T00301009  RH  075%=      5-min Rain = 0
KEN1 171125Z 36007KT 03/M01 A3019 RMK A01 T00301009  RH  075%=      5-min Rain = 0
KEN1 171126Z 36007KT 03/M01 A3019 RMK A01 T00301009  RH  076%=      5-min Rain = 0
KEN1 171127Z 36007KT 03/M01 A3019 RMK A01 T00301009  RH  076%=      5-min Rain = 0
KEN1 171128Z 36006KT 03/M01 A3019 RMK A01 T00291010  RH  076%=      5-min Rain = 0
KEN1 171129Z 36006KT 03/M01 A3019 RMK A01 T00291010  RH  076%=      5-min Rain = 0
KEN1 171130Z 00006KT 03/M01 A302 RMK A01 T00281010  RH  076%=      5-min Rain = 0
KEN1 171131Z 00006KT 03/M01 A302 RMK A01 T00271011  RH  076%=      5-min Rain = 0
KEN1 171132Z 00006KT 03/M01 A302 RMK A01 T00271011  RH  076%=      5-min Rain = 0
KEN1 171133Z 00006KT 03/M01 A302 RMK A01 T00261011  RH  076%=      5-min Rain = 0
KEN1 171134Z 36006KT 03/M01 A302 RMK A01 T00251012  RH  077%=      5-min Rain = 0
KEN1 171135Z 35005KT 02/M01 A302 RMK A01 T00241012  RH  077%=      5-min Rain = 0
KEN1 171136Z 35006KT 02/M01 A302 RMK A01 T00241012  RH  077%=      5-min Rain = 0
KEN1 171137Z 35005KT 02/M01 A302 RMK A01 T00241012  RH  077%=      5-min Rain = 0
KEN1 171138Z 35005KT 02/M01 A302 RMK A01 T00231012  RH  077%=      5-min Rain = 0
KEN1 171139Z 35005KT 02/M01 A302 RMK A01 T00231012  RH  078%=      5-min Rain = 0
KEN1 171140Z 35004KT 02/M01 A302 RMK A01 T00231012  RH  078%=      5-min Rain = 0
KEN1 171141Z 36004KT 02/M01 A302 RMK A01 T00231012  RH  078%=      5-min Rain = 0
KEN1 171142Z 35004KT 02/M01 A302 RMK A01 T00231012  RH  078%=      5-min Rain = 0
KEN1 171143Z 35004KT 02/M01 A302 RMK A01 T00231012  RH  078%=      5-min Rain = 0
KEN1 171144Z 35004KT 02/M01 A3021 RMK A01 T00231012  RH  078%=      5-min Rain = 0
KEN1 171145Z 35004KT 02/M01 A3021 RMK A01 T00221013  RH  078%=      5-min Rain = 0
KEN1 171146Z 35003KT 02/M01 A3021 RMK A01 T00221012  RH  078%=      5-min Rain = 0
KEN1 171147Z 35003KT 02/M01 A3021 RMK A01 T00221013  RH  078%=      5-min Rain = 0
KEN1 171148Z 35003KT 02/M01 A3021 RMK A01 T00211013  RH  078%=      5-min Rain = 0
KEN1 171149Z 00003KT 02/M01 A3021 RMK A01 T00211013  RH  078%=      5-min Rain = 0
KEN1 171150Z 01002KT 02/M01 A3021 RMK A01 T00201014  RH  078%=      5-min Rain = 0
KEN1 171151Z 00002KT 02/M01 A3021 RMK A01 T00201014  RH  078%=      5-min Rain = 0
KEN1 171152Z 00002KT 02/M01 A3021 RMK A01 T00191014  RH  079%=      5-min Rain = 0
KEN1 171153Z 00003KT 02/M01 A3021 RMK A01 T00191013  RH  079%=      5-min Rain = 0
KEN1 171154Z 00003KT 02/M01 A3021 RMK A01 T00191013  RH  079%=      5-min Rain = 0
KEN1 171155Z 35002KT 02/M01 A3021 RMK A01 T00191013  RH  079%=      5-min Rain = 0
KEN1 171156Z 35002KT 02/M01 A3021 RMK A01 T00181013  RH  080%=      5-min Rain = 0
KEN1 171157Z 36002KT 02/M01 A3021 RMK A01 T00191012  RH  080%=      5-min Rain = 0
KEN1 171158Z 35002KT 02/M01 A3021 RMK A01 T00181013  RH  080%=      5-min Rain = 0
KEN1 171159Z 34001KT 02/M01 A3021 RMK A01 T00181013  RH  080%=      5-min Rain = 0
KEN1 171200Z 34001KT 02/M01 A3021 RMK A01 T00181013  RH  080%=      5-min Rain = 0
KEN1 171201Z 34001KT 02/M01 A3021 RMK A01 T00181014  RH  079%=      5-min Rain = 0
KEN1 171202Z 33001KT 02/M01 A3021 RMK A01 T00181013  RH  079%=      5-min Rain = 0
KEN1 171203Z 33000KT 02/M01 A3021 RMK A01 T00191013  RH  080%=      5-min Rain = 0
KEN1 171204Z 33000KT 02/M01 A3021 RMK A01 T00201012  RH  080%=      5-min Rain = 0
KEN1 171205Z 29001KT 02/M01 A3021 RMK A01 T00201012  RH  079%=      5-min Rain = 0
KEN1 171206Z 27001KT 02/M01 A3021 RMK A01 T00201013  RH  079%=      5-min Rain = 0
KEN1 171207Z 28001KT 02/M02 A3021 RMK A01 T00181017  RH  077%=      5-min Rain = 0
KEN1 171208Z 28001KT 02/M02 A3022 RMK A01 T00151021  RH  077%=      5-min Rain = 0
KEN1 171209Z 27001KT 01/M02 A3022 RMK A01 T00141018  RH  079%=      5-min Rain = 0
KEN1 171210Z 28001KT 01/M02 A3022 RMK A01 T00141017  RH  080%=      5-min Rain = 0
KEN1 171211Z 28001KT 01/M02 A3022 RMK A01 T00141016  RH  081%=      5-min Rain = 0
KEN1 171212Z 28002KT 01/M02 A3022 RMK A01 T00141016  RH  081%=      5-min Rain = 0
KEN1 171213Z 29001KT 02/M01 A3022 RMK A01 T00151013  RH  081%=      5-min Rain = 0
KEN1 171214Z 30002KT 02/M01 A3022 RMK A01 T00171012  RH  081%=      5-min Rain = 0
KEN1 171215Z 30002KT 02/M01 A3022 RMK A01 T00181013  RH  080%=      5-min Rain = 0
KEN1 171216Z 29002KT 02/M01 A3022 RMK A01 T00181013  RH  080%=      5-min Rain = 0
KEN1 171217Z 27002KT 02/M01 A3022 RMK A01 T00191013  RH  080%=      5-min Rain = 0
KEN1 171218Z 27002KT 02/M01 A3022 RMK A01 T00201011  RH  080%=      5-min Rain = 0
KEN1 171219Z 27002KT 02/M01 A3022 RMK A01 T00211010  RH  080%=      5-min Rain = 0
KEN1 171220Z 26002KT 02/M01 A3022 RMK A01 T00221010  RH  079%=      5-min Rain = 0
KEN1 171221Z 25002KT 02/M01 A3022 RMK A01 T00231011  RH  079%=      5-min Rain = 0
KEN1 171222Z 24002KT 02/M01 A3022 RMK A01 T00221012  RH  078%=      5-min Rain = 0
KEN1 171223Z 24002KT 02/M01 A3022 RMK A01 T00211014  RH  078%=      5-min Rain = 0
KEN1 171224Z 25002KT 02/M01 A3022 RMK A01 T00201014  RH  078%=      5-min Rain = 0
KEN1 171225Z 24002KT 02/M01 A3022 RMK A01 T00191013  RH  079%=      5-min Rain = 0
KEN1 171226Z 23002KT 02/M01 A3023 RMK A01 T00191014  RH  079%=      5-min Rain = 0
KEN1 171227Z 25002KT 02/M02 A3023 RMK A01 T00181015  RH  078%=      5-min Rain = 0
KEN1 171228Z 27002KT 02/M01 A3023 RMK A01 T00171014  RH  079%=      5-min Rain = 0
KEN1 171229Z 26002KT 02/M02 A3023 RMK A01 T00171015  RH  079%=      5-min Rain = 0
KEN1 171230Z 28002KT 02/M02 A3023 RMK A01 T00171015  RH  079%=      5-min Rain = 0
KEN1 171231Z 27002KT 02/M02 A3023 RMK A01 T00161015  RH  080%=      5-min Rain = 0
KEN1 171232Z 26002KT 02/M01 A3023 RMK A01 T00181011  RH  081%=      5-min Rain = 0
KEN1 171233Z 27002KT 02/M01 A3023 RMK A01 T00191012  RH  080%=      5-min Rain = 0
KEN1 171234Z 29001KT 02/M01 A3023 RMK A01 T00191013  RH  079%=      5-min Rain = 0
KEN1 171235Z 30002KT 02/M01 A3023 RMK A01 T00191013  RH  080%=      5-min Rain = 0
KEN1 171236Z 29002KT 02/M01 A3023 RMK A01 T00191013  RH  080%=      5-min Rain = 0
KEN1 171237Z 29002KT 02/M01 A3023 RMK A01 T00191011  RH  081%=      5-min Rain = 0
KEN1 171238Z 30002KT 02/M01 A3023 RMK A01 T00211009  RH  081%=      5-min Rain = 0
KEN1 171239Z 30002KT 02/M01 A3023 RMK A01 T00221010  RH  080%=      5-min Rain = 0
KEN1 171240Z 29002KT 02/M01 A3023 RMK A01 T00221011  RH  079%=      5-min Rain = 0
KEN1 171241Z 29003KT 02/M01 A3023 RMK A01 T00221011  RH  079%=      5-min Rain = 0
KEN1 171242Z 28003KT 02/M01 A3023 RMK A01 T00231010  RH  079%=      5-min Rain = 0
KEN1 171243Z 28002KT 02/M01 A3023 RMK A01 T00231011  RH  078%=      5-min Rain = 0
KEN1 171244Z 28002KT 02/M01 A3023 RMK A01 T00231010  RH  079%=      5-min Rain = 0
KEN1 171245Z 28002KT 02/M01 A3023 RMK A01 T00221012  RH  078%=      5-min Rain = 0
KEN1 171246Z 27003KT 02/M01 A3023 RMK A01 T00221012  RH  079%=      5-min Rain = 0
KEN1 171247Z 27003KT 02/M01 A3023 RMK A01 T00211011  RH  079%=      5-min Rain = 0
KEN1 171248Z 27003KT 02/M01 A3023 RMK A01 T00211012  RH  079%=      5-min Rain = 0
KEN1 171249Z 26003KT 02/M01 A3023 RMK A01 T00201013  RH  079%=      5-min Rain = 0
KEN1 171250Z 27003KT 02/M02 A3023 RMK A01 T00191015  RH  078%=      5-min Rain = 0
KEN1 171251Z 27003KT 02/M02 A3023 RMK A01 T00181015  RH  079%=      5-min Rain = 0
KEN1 171252Z 27003KT 02/M01 A3023 RMK A01 T00171014  RH  080%=      5-min Rain = 0
KEN1 171253Z 28002KT 02/M01 A3023 RMK A01 T00161014  RH  081%=      5-min Rain = 0
KEN1 171254Z 27002KT 02/M01 A3023 RMK A01 T00171012  RH  081%=      5-min Rain = 0
KEN1 171255Z 28002KT 02/M01 A3023 RMK A01 T00171012  RH  081%=      5-min Rain = 0
KEN1 171256Z 28002KT 02/M01 A3023 RMK A01 T00171013  RH  081%=      5-min Rain = 0
KEN1 171257Z 30001KT 02/M01 A3023 RMK A01 T00171013  RH  081%=      5-min Rain = 0
KEN1 171258Z 30001KT 02/M01 A3023 RMK A01 T00171012  RH  081%=      5-min Rain = 0
KEN1 171259Z 32002KT 02/M01 A3023 RMK A01 T00171012  RH  081%=      5-min Rain = 0
KEN1 171300Z 31002KT 02/M01 A3023 RMK A01 T00171013  RH  081%=      5-min Rain = 0
KEN1 171301Z 33001KT 02/M01 A3023 RMK A01 T00171013  RH  081%=      5-min Rain = 0
KEN1 171302Z 33002KT 02/M01 A3023 RMK A01 T00161013  RH  081%=      5-min Rain = 0
KEN1 171303Z 35002KT 02/M01 A3024 RMK A01 T00171009  RH  083%=      5-min Rain = 0
KEN1 171304Z 35002KT 02/M01 A3024 RMK A01 T00191007  RH  083%=      5-min Rain = 0
KEN1 171305Z 36002KT 02/M01 A3024 RMK A01 T00211007  RH  082%=      5-min Rain = 0
KEN1 171306Z 01003KT 02/M01 A3024 RMK A01 T00211008  RH  081%=      5-min Rain = 0
KEN1 171307Z 01003KT 02/M01 A3024 RMK A01 T00221007  RH  081%=      5-min Rain = 0
KEN1 171308Z 01003KT 03/M01 A3023 RMK A01 T00251005  RH  081%=      5-min Rain = 0
KEN1 171309Z 01004KT 03/M00 A3023 RMK A01 T00271004  RH  080%=      5-min Rain = 0
KEN1 171310Z 01004KT 03/M01 A3024 RMK A01 T00281005  RH  079%=      5-min Rain = 0
KEN1 171311Z 01004KT 03/M01 A3024 RMK A01 T00291006  RH  078%=      5-min Rain = 0
KEN1 171312Z 01004KT 03/M01 A3024 RMK A01 T00281006  RH  078%=      5-min Rain = 0
KEN1 171313Z 01004KT 03/M01 A3024 RMK A01 T00281006  RH  078%=      5-min Rain = 0
KEN1 171314Z 01005KT 03/M01 A3023 RMK A01 T00261011  RH  077%=      5-min Rain = 0
KEN1 171315Z 01005KT 02/M01 A3023 RMK A01 T00231013  RH  077%=      5-min Rain = 0
KEN1 171316Z 02005KT 02/M01 A3023 RMK A01 T00211011  RH  079%=      5-min Rain = 0
KEN1 171317Z 02006KT 02/M01 A3023 RMK A01 T00211010  RH  080%=      5-min Rain = 0
KEN1 171318Z 02006KT 02/M01 A3023 RMK A01 T00211010  RH  080%=      5-min Rain = 0
KEN1 171319Z 02006KT 02/M01 A3023 RMK A01 T00201011  RH  080%=      5-min Rain = 0
KEN1 171320Z 03006KT 02/M01 A3023 RMK A01 T00181012  RH  080%=      5-min Rain = 0
KEN1 171321Z 03005KT 02/M01 A3023 RMK A01 T00171013  RH  081%=      5-min Rain = 0
KEN1 171322Z 03006KT 02/M01 A3023 RMK A01 T00151013  RH  082%=      5-min Rain = 0
KEN1 171323Z 03005KT 02/M01 A3023 RMK A01 T00151012  RH  082%=      5-min Rain = 0
KEN1 171324Z 03005KT 02/M01 A3023 RMK A01 T00151012  RH  083%=      5-min Rain = 0
KEN1 171325Z 03005KT 02/M01 A3023 RMK A01 T00151010  RH  083%=      5-min Rain = 0
KEN1 171326Z 03005KT 02/M01 A3023 RMK A01 T00151010  RH  083%=      5-min Rain = 0
KEN1 171327Z 03004KT 02/M01 A3023 RMK A01 T00151011  RH  083%=      5-min Rain = 0
KEN1 171328Z 03004KT 02/M01 A3023 RMK A01 T00151011  RH  083%=      5-min Rain = 0
KEN1 171329Z 03004KT 01/M01 A3023 RMK A01 T00141012  RH  083%=      5-min Rain = 0
KEN1 171330Z 03004KT 01/M01 A3023 RMK A01 T00141012  RH  083%=      5-min Rain = 0
KEN1 171331Z 03004KT 01/M01 A3024 RMK A01 T00141012  RH  083%=      5-min Rain = 0
KEN1 171332Z 03003KT 01/M01 A3024 RMK A01 T00131012  RH  083%=      5-min Rain = 0
KEN1 171333Z 03003KT 01/M01 A3024 RMK A01 T00131012  RH  083%=      5-min Rain = 0
KEN1 171334Z 02003KT 01/M01 A3024 RMK A01 T00121014  RH  083%=      5-min Rain = 0
KEN1 171335Z 02003KT 01/M01 A3024 RMK A01 T00121014  RH  083%=      5-min Rain = 0
KEN1 171336Z 01003KT 01/M01 A3024 RMK A01 T00111014  RH  084%=      5-min Rain = 0
KEN1 171337Z 01002KT 01/M01 A3024 RMK A01 T00111013  RH  084%=      5-min Rain = 0
KEN1 171338Z 01002KT 01/M01 A3024 RMK A01 T00111012  RH  085%=      5-min Rain = 0
KEN1 171339Z 01002KT 01/M01 A3024 RMK A01 T00111011  RH  085%=      5-min Rain = 0
KEN1 171340Z 01002KT 01/M01 A3024 RMK A01 T00121011  RH  085%=      5-min Rain = 0
KEN1 171341Z 01002KT 01/M01 A3024 RMK A01 T00121010  RH  085%=      5-min Rain = 0
KEN1 171342Z 01002KT 01/M01 A3024 RMK A01 T00131010  RH  085%=      5-min Rain = 0
KEN1 171343Z 35002KT 01/M01 A3024 RMK A01 T00141009  RH  085%=      5-min Rain = 0
KEN1 171344Z 33001KT 02/M01 A3024 RMK A01 T00151009  RH  084%=      5-min Rain = 0
KEN1 171345Z 29001KT 02/M01 A3024 RMK A01 T00151010  RH  083%=      5-min Rain = 0
KEN1 171346Z 28001KT 01/M02 A3024 RMK A01 T00121015  RH  082%=      5-min Rain = 0
KEN1 171347Z 29002KT 01/M02 A3024 RMK A01 T00081020  RH  082%=      5-min Rain = 0
KEN1 171348Z 29002KT 01/M02 A3024 RMK A01 T00061020  RH  083%=      5-min Rain = 0
KEN1 171349Z 26002KT 01/M02 A3024 RMK A01 T00051019  RH  084%=      5-min Rain = 0
KEN1 171350Z 26002KT 00/M02 A3024 RMK A01 T00041019  RH  084%=      5-min Rain = 0
KEN1 171351Z 26002KT 00/M02 A3024 RMK A01 T00031020  RH  084%=      5-min Rain = 0
KEN1 171352Z 26001KT 00/M02 A3024 RMK A01 T00021021  RH  085%=      5-min Rain = 0
KEN1 171353Z 27002KT 00/M02 A3024 RMK A01 T00021020  RH  085%=      5-min Rain = 0
KEN1 171354Z 27002KT 00/M02 A3024 RMK A01 T00021020  RH  086%=      5-min Rain = 0
KEN1 171355Z 29002KT 00/M02 A3024 RMK A01 T00031017  RH  087%=      5-min Rain = 0
KEN1 171356Z 30002KT 00/M02 A3024 RMK A01 T00041015  RH  087%=      5-min Rain = 0
KEN1 171357Z 31002KT 01/M01 A3024 RMK A01 T00061013  RH  087%=      5-min Rain = 0
KEN1 171358Z 32002KT 01/M01 A3024 RMK A01 T00071014  RH  086%=      5-min Rain = 0
KEN1 171359Z 33002KT 01/M02 A3024 RMK A01 T00071015  RH  085%=      5-min Rain = 0
KEN1 171400Z 33002KT 01/M02 A3024 RMK A01 T00071015  RH  085%=      5-min Rain = 0
KEN1 171401Z 34002KT 01/M02 A3024 RMK A01 T00071016  RH  084%=      5-min Rain = 0
KEN1 171402Z 34002KT 01/M02 A3024 RMK A01 T00081016  RH  084%=      5-min Rain = 0
KEN1 171403Z 34002KT 01/M02 A3024 RMK A01 T00081017  RH  084%=      5-min Rain = 0
KEN1 171404Z 34002KT 01/M02 A3024 RMK A01 T00081017  RH  084%=      5-min Rain = 0
KEN1 171405Z 34002KT 01/M02 A3024 RMK A01 T00081016  RH  084%=      5-min Rain = 0
KEN1 171406Z 34003KT 01/M02 A3025 RMK A01 T00081016  RH  084%=      5-min Rain = 0
KEN1 171407Z 33002KT 01/M02 A3025 RMK A01 T00091015  RH  084%=      5-min Rain = 0
KEN1 171408Z 33002KT 01/M01 A3025 RMK A01 T00101014  RH  084%=      5-min Rain = 0
KEN1 171409Z 33002KT 01/M01 A3025 RMK A01 T00101013  RH  084%=      5-min Rain = 0
KEN1 171410Z 33002KT 01/M01 A3025 RMK A01 T00111012  RH  084%=      5-min Rain = 0
KEN1 171411Z 33002KT 01/M01 A3025 RMK A01 T00121011  RH  085%=      5-min Rain = 0
KEN1 171412Z 34002KT 01/M01 A3025 RMK A01 T00131010  RH  085%=      5-min Rain = 0
KEN1 171413Z 34003KT 01/M01 A3025 RMK A01 T00141009  RH  084%=      5-min Rain = 0
KEN1 171414Z 34003KT 02/M01 A3025 RMK A01 T00151008  RH  084%=      5-min Rain = 0
KEN1 171415Z 32003KT 02/M01 A3025 RMK A01 T00161008  RH  084%=      5-min Rain = 0
KEN1 171416Z 30002KT 02/M01 A3025 RMK A01 T00171007  RH  084%=      5-min Rain = 0
KEN1 171417Z 29003KT 02/M01 A3025 RMK A01 T00191006  RH  084%=      5-min Rain = 0
KEN1 171418Z 29003KT 02/M01 A3025 RMK A01 T00201006  RH  083%=      5-min Rain = 0
KEN1 171419Z 30003KT 02/M01 A3025 RMK A01 T00211005  RH  083%=      5-min Rain = 0
KEN1 171420Z 30003KT 02/M01 A3025 RMK A01 T00221005  RH  083%=      5-min Rain = 0
KEN1 171421Z 31002KT 02/M00 A3025 RMK A01 T00231004  RH  082%=      5-min Rain = 0
KEN1 171422Z 30003KT 02/M00 A3025 RMK A01 T00241004  RH  082%=      5-min Rain = 0
KEN1 171423Z 31003KT 03/M00 A3025 RMK A01 T00251004  RH  081%=      5-min Rain = 0
KEN1 171424Z 31003KT 03/M00 A3026 RMK A01 T00261004  RH  081%=      5-min Rain = 0
KEN1 171425Z 31003KT 03/M00 A3026 RMK A01 T00271003  RH  081%=      5-min Rain = 0
KEN1 171426Z 31003KT 03/M00 A3026 RMK A01 T00281002  RH  080%=      5-min Rain = 0
KEN1 171427Z 30003KT 03/M00 A3026 RMK A01 T00291001  RH  080%=      5-min Rain = 0
KEN1 171428Z 31003KT 03/M00 A3026 RMK A01 T00301001  RH  080%=      5-min Rain = 0
KEN1 171429Z 31002KT 03/00 A3025 RMK A01 T00320000  RH  080%=      5-min Rain = 0
KEN1 171430Z 31002KT 03/00 A3026 RMK A01 T00330002  RH  080%=      5-min Rain = 0
KEN1 171431Z 32003KT 04/00 A3026 RMK A01 T00350002  RH  079%=      5-min Rain = 0
KEN1 171432Z 31002KT 04/00 A3025 RMK A01 T00370004  RH  079%=      5-min Rain = 0
KEN1 171433Z 31003KT 04/00 A3025 RMK A01 T00380004  RH  079%=      5-min Rain = 0
KEN1 171434Z 31003KT 04/01 A3025 RMK A01 T00390005  RH  078%=      5-min Rain = 0
KEN1 171435Z 31003KT 04/01 A3025 RMK A01 T00410005  RH  078%=      5-min Rain = 0
KEN1 171436Z 33003KT 04/01 A3025 RMK A01 T00420005  RH  077%=      5-min Rain = 0
KEN1 171437Z 33003KT 04/01 A3025 RMK A01 T00420006  RH  077%=      5-min Rain = 0
KEN1 171438Z 33004KT 04/01 A3025 RMK A01 T00430006  RH  077%=      5-min Rain = 0
KEN1 171439Z 33003KT 05/01 A3025 RMK A01 T00450007  RH  077%=      5-min Rain = 0
KEN1 171440Z 33003KT 05/01 A3025 RMK A01 T00460007  RH  076%=      5-min Rain = 0
KEN1 171441Z 33004KT 05/01 A3025 RMK A01 T00460007  RH  076%=      5-min Rain = 0
KEN1 171442Z 32004KT 05/01 A3025 RMK A01 T00460007  RH  075%=      5-min Rain = 0
KEN1 171443Z 32004KT 05/01 A3025 RMK A01 T00460006  RH  075%=      5-min Rain = 0
KEN1 171444Z 32004KT 05/01 A3025 RMK A01 T00460007  RH  075%=      5-min Rain = 0
KEN1 171445Z 33003KT 05/01 A3025 RMK A01 T00470008  RH  076%=      5-min Rain = 0
KEN1 171446Z 32004KT 05/01 A3025 RMK A01 T00480009  RH  076%=      5-min Rain = 0
KEN1 171447Z 32004KT 05/01 A3025 RMK A01 T00490009  RH  075%=      5-min Rain = 0
KEN1 171448Z 32004KT 05/01 A3026 RMK A01 T00490008  RH  075%=      5-min Rain = 0
KEN1 171449Z 32003KT 05/01 A3026 RMK A01 T00490008  RH  075%=      5-min Rain = 0
KEN1 171450Z 32004KT 05/01 A3026 RMK A01 T00490008  RH  075%=      5-min Rain = 0
KEN1 171451Z 32003KT 05/01 A3026 RMK A01 T00490008  RH  075%=      5-min Rain = 0
KEN1 171452Z 33003KT 05/01 A3026 RMK A01 T00490009  RH  075%=      5-min Rain = 0
KEN1 171453Z 32003KT 05/01 A3026 RMK A01 T00500009  RH  075%=      5-min Rain = 0
KEN1 171454Z 33004KT 05/01 A3026 RMK A01 T00500010  RH  075%=      5-min Rain = 0
KEN1 171455Z 34003KT 05/01 A3026 RMK A01 T00510010  RH  075%=      5-min Rain = 0
KEN1 171456Z 33004KT 05/01 A3026 RMK A01 T00520011  RH  075%=      5-min Rain = 0
KEN1 171457Z 33004KT 05/01 A3026 RMK A01 T00530011  RH  075%=      5-min Rain = 0
KEN1 171458Z 34004KT 05/01 A3026 RMK A01 T00530011  RH  074%=      5-min Rain = 0
KEN1 171459Z 34003KT 05/01 A3026 RMK A01 T00530011  RH  074%=      5-min Rain = 0
KEN1 171500Z 34004KT 05/01 A3026 RMK A01 T00530011  RH  074%=      5-min Rain = 0
KEN1 171501Z 35005KT 06/01 A3026 RMK A01 T00550013  RH  075%=      5-min Rain = 0
KEN1 171502Z 01006KT 06/01 A3026 RMK A01 T00550013  RH  074%=      5-min Rain = 0
KEN1 171503Z 35003KT 06/01 A3026 RMK A01 T00550013  RH  075%=      5-min Rain = 0
KEN1 171504Z 36005KT 06/02 A3026 RMK A01 T00570015  RH  074%=      5-min Rain = 0
KEN1 171505Z 00005KT 06/02 A3026 RMK A01 T00570015  RH  074%=      5-min Rain = 0
KEN1 171506Z 36006KT 06/02 A3026 RMK A01 T00580016  RH  074%=      5-min Rain = 0
KEN1 171507Z 00005KT 06/02 A3026 RMK A01 T00590017  RH  074%=      5-min Rain = 0
KEN1 171508Z 02007KT 06/02 A3026 RMK A01 T00600018  RH  074%=      5-min Rain = 0
KEN1 171509Z 02007KT 06/02 A3026 RMK A01 T00600017  RH  074%=      5-min Rain = 0
KEN1 171510Z 36006KT 06/02 A3026 RMK A01 T00600017  RH  074%=      5-min Rain = 0
KEN1 171511Z 01007KT 06/02 A3026 RMK A01 T00600018  RH  074%=      5-min Rain = 0
KEN1 171512Z 00008KT 06/02 A3026 RMK A01 T00610018  RH  074%=      5-min Rain = 0
KEN1 171513Z 00007KT 06/02 A3026 RMK A01 T00610018  RH  074%=      5-min Rain = 0
KEN1 171514Z 02007KT 06/02 A3026 RMK A01 T00610018  RH  074%=      5-min Rain = 0
KEN1 171515Z 02006KT 06/02 A3026 RMK A01 T00610018  RH  073%=      5-min Rain = 0
KEN1 171516Z 02006KT 06/02 A3026 RMK A01 T00620018  RH  074%=      5-min Rain = 0
KEN1 171517Z 01005KT 06/02 A3026 RMK A01 T00620018  RH  074%=      5-min Rain = 0
KEN1 171518Z 35007KT 06/02 A3026 RMK A01 T00630019  RH  073%=      5-min Rain = 0
KEN1 171519Z 35008KT 07/02 A3026 RMK A01 T00650019  RH  073%=      5-min Rain = 0
KEN1 171520Z 36008KT 07/02 A3026 RMK A01 T00650019  RH  072%=      5-min Rain = 0
KEN1 171521Z 01006KT 07/02 A3026 RMK A01 T00660019  RH  072%=      5-min Rain = 0
KEN1 171522Z 00005KT 07/02 A3026 RMK A01 T00660019  RH  072%=      5-min Rain = 0
KEN1 171523Z 36006KT 07/02 A3026 RMK A01 T00670019  RH  072%=      5-min Rain = 0
KEN1 171524Z 36008KT 07/02 A3026 RMK A01 T00680020  RH  071%=      5-min Rain = 0
KEN1 171525Z 36007KT 07/02 A3026 RMK A01 T00680019  RH  071%=      5-min Rain = 0
KEN1 171526Z 01006KT 07/02 A3026 RMK A01 T00690020  RH  071%=      5-min Rain = 0
KEN1 171527Z 35006KT 07/02 A3026 RMK A01 T00700020  RH  071%=      5-min Rain = 0
KEN1 171528Z 01007KT 07/02 A3026 RMK A01 T00720021  RH  070%=      5-min Rain = 0
KEN1 171529Z 00008KT 07/02 A3025 RMK A01 T00740022  RH  070%=      5-min Rain = 0
KEN1 171530Z 00007KT 07/02 A3025 RMK A01 T00740020  RH  069%=      5-min Rain = 0
KEN1 171531Z 00006KT 07/02 A3025 RMK A01 T00720019  RH  069%=      5-min Rain = 0
KEN1 171532Z 00006KT 07/02 A3026 RMK A01 T00710020  RH  070%=      5-min Rain = 0
KEN1 171533Z 36009KT 07/02 A3026 RMK A01 T00720021  RH  070%=      5-min Rain = 0
KEN1 171534Z 00008KT 07/02 A3026 RMK A01 T00730020  RH  069%=      5-min Rain = 0
KEN1 171535Z 36009KT 07/02 A3026 RMK A01 T00720020  RH  070%=      5-min Rain = 0
KEN1 171536Z 00008KT 07/02 A3026 RMK A01 T00730020  RH  069%=      5-min Rain = 0
KEN1 171537Z 02007KT 07/02 A3025 RMK A01 T00740021  RH  069%=      5-min Rain = 0
KEN1 171538Z 03008KT 08/02 A3025 RMK A01 T00750021  RH  069%=      5-min Rain = 0
KEN1 171539Z 03009KT 08/02 A3025 RMK A01 T00760021  RH  068%=      5-min Rain = 0
KEN1 171540Z 03007KT 08/02 A3025 RMK A01 T00760021  RH  068%=      5-min Rain = 0
KEN1 171541Z 02010G16KT 08/02 A3025 RMK A01 T00780022  RH  068%=      5-min Rain = 0
KEN1 171542Z 01014KT 08/02 A3025 RMK A01 T00800021  RH  066%=      5-min Rain = 0
KEN1 171543Z 01013KT 08/02 A3025 RMK A01 T00790018  RH  065%=      5-min Rain = 0
KEN1 171544Z 02010KT 08/02 A3025 RMK A01 T00780018  RH  066%=      5-min Rain = 0
KEN1 171545Z 00010KT 08/02 A3025 RMK A01 T00780019  RH  066%=      5-min Rain = 0
KEN1 171546Z 02010KT 08/02 A3025 RMK A01 T00790019  RH  066%=      5-min Rain = 0
KEN1 171547Z 02011KT 08/02 A3025 RMK A01 T00810020  RH  065%=      5-min Rain = 0
KEN1 171548Z 02011KT 08/02 A3025 RMK A01 T00830018  RH  064%=      5-min Rain = 0
KEN1 171549Z 03011KT 08/02 A3025 RMK A01 T00810017  RH  064%=      5-min Rain = 0
KEN1 171550Z 03011KT 08/02 A3025 RMK A01 T00810017  RH  064%=      5-min Rain = 0
KEN1 171551Z 02011KT 08/02 A3025 RMK A01 T00800017  RH  064%=      5-min Rain = 0
KEN1 171552Z 01011KT 08/02 A3025 RMK A01 T00800018  RH  065%=      5-min Rain = 0
KEN1 171553Z 01010KT 08/02 A3025 RMK A01 T00810018  RH  065%=      5-min Rain = 0
KEN1 171554Z 01013KT 08/02 A3025 RMK A01 T00820019  RH  065%=      5-min Rain = 0
KEN1 171555Z 02011KT 08/02 A3025 RMK A01 T00830018  RH  063%=      5-min Rain = 0
KEN1 171556Z 03009KT 08/02 A3025 RMK A01 T00840017  RH  063%=      5-min Rain = 0
KEN1 171557Z 02011KT 08/02 A3025 RMK A01 T00830017  RH  063%=      5-min Rain = 0
KEN1 171558Z 02010KT 08/02 A3025 RMK A01 T00840017  RH  063%=      5-min Rain = 0
KEN1 171559Z 02010KT 08/02 A3025 RMK A01 T00830017  RH  063%=      5-min Rain = 0
KEN1 171600Z 00010KT 08/02 A3025 RMK A01 T00830017  RH  063%=      5-min Rain = 0
KEN1 171601Z 01011KT 08/02 A3025 RMK A01 T00840017  RH  063%=      5-min Rain = 0
KEN1 171602Z 00011KT 09/02 A3025 RMK A01 T00850017  RH  062%=      5-min Rain = 0
KEN1 171603Z 03012KT 09/02 A3024 RMK A01 T00860016  RH  062%=      5-min Rain = 0
KEN1 171604Z 03011KT 09/02 A3025 RMK A01 T00860015  RH  061%=      5-min Rain = 0
KEN1 171605Z 03010KT 09/01 A3024 RMK A01 T00850014  RH  061%=      5-min Rain = 0
KEN1 171606Z 04010KT 09/02 A3024 RMK A01 T00860015  RH  061%=      5-min Rain = 0
KEN1 171607Z 05010KT 09/02 A3024 RMK A01 T00870015  RH  061%=      5-min Rain = 0
KEN1 171608Z 04012KT 09/02 A3024 RMK A01 T00870016  RH  061%=      5-min Rain = 0
KEN1 171609Z 03009KT 09/02 A3024 RMK A01 T00880016  RH  060%=      5-min Rain = 0
KEN1 171610Z 03009KT 09/02 A3024 RMK A01 T00870016  RH  061%=      5-min Rain = 0
KEN1 171611Z 04011KT 09/02 A3024 RMK A01 T00870015  RH  061%=      5-min Rain = 0
KEN1 171612Z 04010KT 09/01 A3024 RMK A01 T00870014  RH  060%=      5-min Rain = 0
KEN1 171613Z 02010KT 09/01 A3024 RMK A01 T00860014  RH  061%=      5-min Rain = 0
KEN1 171614Z 02009KT 09/02 A3024 RMK A01 T00870016  RH  061%=      5-min Rain = 0
KEN1 171615Z 02010KT 09/02 A3024 RMK A01 T00880015  RH  060%=      5-min Rain = 0
KEN1 171616Z 02011KT 09/01 A3024 RMK A01 T00870013  RH  060%=      5-min Rain = 0
KEN1 171617Z 03009KT 09/01 A3024 RMK A01 T00870013  RH  060%=      5-min Rain = 0
KEN1 171618Z 03009KT 09/02 A3024 RMK A01 T00900016  RH  060%=      5-min Rain = 0
KEN1 171619Z 03011KT 09/02 A3024 RMK A01 T00910015  RH  059%=      5-min Rain = 0
KEN1 171620Z 03009KT 09/01 A3024 RMK A01 T00900014  RH  059%=      5-min Rain = 0
KEN1 171621Z 03009KT 09/01 A3024 RMK A01 T00890014  RH  059%=      5-min Rain = 0
KEN1 171622Z 04009KT 09/02 A3024 RMK A01 T00900015  RH  059%=      5-min Rain = 0
KEN1 171623Z 04010KT 09/02 A3024 RMK A01 T00910015  RH  059%=      5-min Rain = 0
KEN1 171624Z 03009KT 09/02 A3024 RMK A01 T00910015  RH  059%=      5-min Rain = 0
KEN1 171625Z 02007KT 09/02 A3024 RMK A01 T00910015  RH  059%=      5-min Rain = 0
KEN1 171626Z 01009KT 09/02 A3024 RMK A01 T00920016  RH  059%=      5-min Rain = 0
KEN1 171627Z 02009KT 09/02 A3024 RMK A01 T00930015  RH  058%=      5-min Rain = 0
KEN1 171628Z 04011KT 09/02 A3024 RMK A01 T00930015  RH  058%=      5-min Rain = 0
KEN1 171629Z 02009KT 09/02 A3024 RMK A01 T00940015  RH  058%=      5-min Rain = 0
KEN1 171630Z 02009KT 09/01 A3024 RMK A01 T00900013  RH  058%=      5-min Rain = 0
KEN1 171631Z 03008KT 09/01 A3024 RMK A01 T00890014  RH  059%=      5-min Rain = 0
KEN1 171632Z 04009KT 09/02 A3024 RMK A01 T00910015  RH  059%=      5-min Rain = 0
KEN1 171633Z 04008KT 09/02 A3024 RMK A01 T00910015  RH  059%=      5-min Rain = 0
KEN1 171634Z 03008KT 09/02 A3024 RMK A01 T00920016  RH  059%=      5-min Rain = 0
KEN1 171635Z 03008KT 09/02 A3024 RMK A01 T00920015  RH  059%=      5-min Rain = 0
KEN1 171636Z 02008KT 09/02 A3024 RMK A01 T00930016  RH  059%=      5-min Rain = 0
KEN1 171637Z 02009KT 10/02 A3024 RMK A01 T00960016  RH  058%=      5-min Rain = 0
KEN1 171638Z 02009KT 09/01 A3024 RMK A01 T00940014  RH  057%=      5-min Rain = 0
KEN1 171639Z 03009KT 09/01 A3024 RMK A01 T00920013  RH  058%=      5-min Rain = 0
KEN1 171640Z 03006KT 09/01 A3024 RMK A01 T00900013  RH  059%=      5-min Rain = 0
KEN1 171641Z 05008KT 09/01 A3024 RMK A01 T00900014  RH  059%=      5-min Rain = 0
KEN1 171642Z 03011KT 09/01 A3024 RMK A01 T00920014  RH  058%=      5-min Rain = 0
KEN1 171643Z 03008KT 09/01 A3024 RMK A01 T00930014  RH  058%=      5-min Rain = 0
KEN1 171644Z 04008KT 09/02 A3024 RMK A01 T00930015  RH  058%=      5-min Rain = 0
KEN1 171645Z 04007KT 09/02 A3024 RMK A01 T00940016  RH  058%=      5-min Rain = 0
KEN1 171646Z 04006KT 09/01 A3024 RMK A01 T00940014  RH  057%=      5-min Rain = 0
KEN1 171647Z 03006KT 09/02 A3024 RMK A01 T00940016  RH  058%=      5-min Rain = 0
KEN1 171648Z 05006KT 10/02 A3024 RMK A01 T00960016  RH  057%=      5-min Rain = 0
KEN1 171649Z 05007KT 10/02 A3024 RMK A01 T00970016  RH  057%=      5-min Rain = 0
KEN1 171650Z 04008KT 10/02 A3024 RMK A01 T00970015  RH  057%=      5-min Rain = 0
KEN1 171651Z 04008KT 10/02 A3024 RMK A01 T00980016  RH  057%=      5-min Rain = 0
KEN1 171652Z 04006KT 10/02 A3024 RMK A01 T00980016  RH  057%=      5-min Rain = 0
KEN1 171653Z 01007KT 10/02 A3024 RMK A01 T00960015  RH  057%=      5-min Rain = 0
KEN1 171654Z 01010KT 10/02 A3024 RMK A01 T00960015  RH  057%=      5-min Rain = 0
KEN1 171655Z 01010KT 10/01 A3024 RMK A01 T00960013  RH  056%=      5-min Rain = 0
KEN1 171656Z 01009KT 09/01 A3024 RMK A01 T00940011  RH  056%=      5-min Rain = 0
KEN1 171657Z 02007KT 09/01 A3024 RMK A01 T00920012  RH  057%=      5-min Rain = 0
KEN1 171658Z 03007KT 09/01 A3024 RMK A01 T00920013  RH  058%=      5-min Rain = 0
KEN1 171659Z 03005KT 09/01 A3024 RMK A01 T00910014  RH  058%=      5-min Rain = 0
KEN1 171700Z 03005KT 09/02 A3024 RMK A01 T00910015  RH  059%=      5-min Rain = 0
KEN1 171701Z 02007KT 10/02 A3024 RMK A01 T00950017  RH  058%=      5-min Rain = 0
KEN1 171702Z 01006KT 10/01 A3024 RMK A01 T00950014  RH  057%=      5-min Rain = 0
KEN1 171703Z 03007KT 09/02 A3024 RMK A01 T00930015  RH  058%=      5-min Rain = 0
KEN1 171704Z 04004KT 09/01 A3024 RMK A01 T00930014  RH  058%=      5-min Rain = 0
KEN1 171705Z 03003KT 09/01 A3024 RMK A01 T00930014  RH  058%=      5-min Rain = 0
KEN1 171706Z 02005KT 09/01 A3024 RMK A01 T00920014  RH  058%=      5-min Rain = 0
KEN1 171707Z 03008KT 09/02 A3024 RMK A01 T00940015  RH  058%=      5-min Rain = 0
KEN1 171708Z 01008KT 10/02 A3024 RMK A01 T00950015  RH  057%=      5-min Rain = 0
KEN1 171709Z 00007KT 10/02 A3024 RMK A01 T00960015  RH  057%=      5-min Rain = 0
KEN1 171710Z 01009KT 10/02 A3023 RMK A01 T00950015  RH  057%=      5-min Rain = 0
KEN1 171711Z 01007KT 10/02 A3023 RMK A01 T00950015  RH  057%=      5-min Rain = 0
KEN1 171712Z 01006KT 10/01 A3023 RMK A01 T00950014  RH  057%=      5-min Rain = 0
KEN1 171713Z 01007KT 09/01 A3023 RMK A01 T00940014  RH  057%=      5-min Rain = 0
KEN1 171714Z 02006KT 10/01 A3023 RMK A01 T00950014  RH  057%=      5-min Rain = 0
KEN1 171715Z 02007KT 10/02 A3023 RMK A01 T00970015  RH  057%=      5-min Rain = 0
KEN1 171716Z 01005KT 10/01 A3023 RMK A01 T00970014  RH  056%=      5-min Rain = 0
KEN1 171717Z 04005KT 10/01 A3023 RMK A01 T00960013  RH  056%=      5-min Rain = 0
KEN1 171718Z 04007KT 10/01 A3023 RMK A01 T00960014  RH  057%=      5-min Rain = 0
KEN1 171719Z 06007KT 10/02 A3023 RMK A01 T00960015  RH  057%=      5-min Rain = 0
KEN1 171720Z 05007KT 10/01 A3023 RMK A01 T00970014  RH  056%=      5-min Rain = 0
KEN1 171721Z 06005KT 10/02 A3023 RMK A01 T00970015  RH  057%=      5-min Rain = 0
KEN1 171722Z 03004KT 10/02 A3023 RMK A01 T00990015  RH  056%=      5-min Rain = 0
KEN1 171723Z 01007KT 10/02 A3023 RMK A01 T01010016  RH  056%=      5-min Rain = 0
KEN1 171724Z 03008KT 10/01 A3023 RMK A01 T01010014  RH  055%=      5-min Rain = 0
KEN1 171725Z 03008KT 10/01 A3023 RMK A01 T01000014  RH  055%=      5-min Rain = 0
KEN1 171726Z 02007KT 10/01 A3023 RMK A01 T01000014  RH  055%=      5-min Rain = 0
KEN1 171727Z 04007KT 10/01 A3023 RMK A01 T01000014  RH  055%=      5-min Rain = 0
KEN1 171728Z 05008KT 10/01 A3022 RMK A01 T01000014  RH  055%=      5-min Rain = 0
KEN1 171729Z 03006KT 10/01 A3022 RMK A01 T00990014  RH  055%=      5-min Rain = 0
KEN1 171730Z 00007KT 10/02 A3022 RMK A01 T01000015  RH  055%=      5-min Rain = 0
KEN1 171731Z 01006KT 10/01 A3023 RMK A01 T01010014  RH  055%=      5-min Rain = 0
KEN1 171732Z 01004KT 10/01 A3023 RMK A01 T00990013  RH  055%=      5-min Rain = 0
KEN1 171733Z 02004KT 10/01 A3023 RMK A01 T00990014  RH  055%=      5-min Rain = 0
KEN1 171734Z 05007KT 10/02 A3023 RMK A01 T01010016  RH  055%=      5-min Rain = 0
KEN1 171735Z 04008KT 10/02 A3022 RMK A01 T01030015  RH  055%=      5-min Rain = 0
KEN1 171736Z 03008KT 10/01 A3023 RMK A01 T01020014  RH  055%=      5-min Rain = 0
KEN1 171737Z 04006KT 10/01 A3023 RMK A01 T00990013  RH  055%=      5-min Rain = 0
KEN1 171738Z 05003KT 10/01 A3022 RMK A01 T00960013  RH  056%=      5-min Rain = 0
KEN1 171739Z 03005KT 10/01 A3022 RMK A01 T00950013  RH  057%=      5-min Rain = 0
KEN1 171740Z 02008KT 10/02 A3022 RMK A01 T00970015  RH  057%=      5-min Rain = 0
KEN1 171741Z 00007KT 10/02 A3022 RMK A01 T01020017  RH  056%=      5-min Rain = 0
KEN1 171742Z 36007KT 10/02 A3022 RMK A01 T01030016  RH  055%=      5-min Rain = 0
KEN1 171743Z 01006KT 10/02 A3022 RMK A01 T01040017  RH  055%=      5-min Rain = 0
KEN1 171744Z 02005KT 11/02 A3022 RMK A01 T01050017  RH  055%=      5-min Rain = 0
KEN1 171745Z 05008KT 11/02 A3022 RMK A01 T01070017  RH  054%=      5-min Rain = 0
KEN1 171746Z 04006KT 11/02 A3022 RMK A01 T01070016  RH  053%=      5-min Rain = 0
KEN1 171747Z 06005KT 11/02 A3022 RMK A01 T01080016  RH  053%=      5-min Rain = 0
KEN1 171748Z 04008KT 11/02 A3022 RMK A01 T01080016  RH  053%=      5-min Rain = 0
KEN1 171749Z 03007KT 11/02 A3022 RMK A01 T01100017  RH  053%=      5-min Rain = 0
KEN1 171750Z 04010KT 11/02 A3022 RMK A01 T01120016  RH  052%=      5-min Rain = 0
KEN1 171751Z 06007KT 11/02 A3022 RMK A01 T01100015  RH  052%=      5-min Rain = 0
KEN1 171752Z 04008KT 11/02 A3022 RMK A01 T01100016  RH  052%=      5-min Rain = 0
KEN1 171753Z 03010KT 11/02 A3022 RMK A01 T01110015  RH  052%=      5-min Rain = 0
KEN1 171754Z 03008KT 11/02 A3022 RMK A01 T01110015  RH  052%=      5-min Rain = 0
KEN1 171755Z 02009KT 11/02 A3023 RMK A01 T01100016  RH  052%=      5-min Rain = 0
KEN1 171756Z 02006KT 11/02 A3022 RMK A01 T01100016  RH  052%=      5-min Rain = 0
KEN1 171757Z 02006KT 11/01 A3022 RMK A01 T01080014  RH  052%=      5-min Rain = 0
KEN1 171758Z 02007KT 11/02 A3022 RMK A01 T01070015  RH  053%=      5-min Rain = 0
KEN1 171759Z 03005KT 11/02 A3022 RMK A01 T01060015  RH  053%=      5-min Rain = 0
KEN1 171800Z 02003KT 10/01 A3022 RMK A01 T01040013  RH  053%=      5-min Rain = 0
KEN1 171801Z 05003KT 10/01 A3022 RMK A01 T01030014  RH  054%=      5-min Rain = 0
KEN1 171802Z 02009KT 11/02 A3022 RMK A01 T01060016  RH  054%=      5-min Rain = 0
KEN1 171803Z 35008KT 11/02 A3022 RMK A01 T01100017  RH  053%=      5-min Rain = 0
KEN1 171804Z 35007KT 11/02 A3022 RMK A01 T01100016  RH  052%=      5-min Rain = 0
KEN1 171805Z 35006KT 11/02 A3022 RMK A01 T01090015  RH  052%=      5-min Rain = 0
KEN1 171806Z 34005KT 11/01 A3022 RMK A01 T01070014  RH  053%=      5-min Rain = 0
KEN1 171807Z 01005KT 11/02 A3022 RMK A01 T01060015  RH  053%=      5-min Rain = 0
KEN1 171808Z 02007KT 11/02 A3022 RMK A01 T01110018  RH  053%=      5-min Rain = 0
KEN1 171809Z 03009KT 11/02 A3022 RMK A01 T01110015  RH  052%=      5-min Rain = 0
KEN1 171810Z 35009KT 11/02 A3023 RMK A01 T01100015  RH  052%=      5-min Rain = 0
KEN1 171811Z 01008KT 11/02 A3023 RMK A01 T01100015  RH  052%=      5-min Rain = 0
KEN1 171812Z 02009KT 11/02 A3022 RMK A01 T01100015  RH  052%=      5-min Rain = 0
KEN1 171813Z 03010KT 11/02 A3022 RMK A01 T01100015  RH  052%=      5-min Rain = 0
KEN1 171814Z 02007KT 11/02 A3022 RMK A01 T01110015  RH  052%=      5-min Rain = 0
KEN1 171815Z 04008KT 11/02 A3022 RMK A01 T01120016  RH  052%=      5-min Rain = 0
KEN1 171816Z 01011KT 11/02 A3022 RMK A01 T01120016  RH  052%=      5-min Rain = 0
KEN1 171817Z 01009KT 11/02 A3023 RMK A01 T01120016  RH  051%=      5-min Rain = 0
KEN1 171818Z 01009KT 11/02 A3022 RMK A01 T01130017  RH  051%=      5-min Rain = 0
KEN1 171819Z 03010KT 11/02 A3022 RMK A01 T01140016  RH  051%=      5-min Rain = 0
KEN1 171820Z 03008KT 11/02 A3022 RMK A01 T01130015  RH  051%=      5-min Rain = 0
KEN1 171821Z 03006KT 11/02 A3022 RMK A01 T01130015  RH  051%=      5-min Rain = 0
KEN1 171822Z 03011KT 11/02 A3022 RMK A01 T01140016  RH  051%=      5-min Rain = 0
KEN1 171823Z 04009KT 12/02 A3022 RMK A01 T01150015  RH  050%=      5-min Rain = 0
KEN1 171824Z 04009KT 12/01 A3021 RMK A01 T01150014  RH  050%=      5-min Rain = 0
KEN1 171825Z 02007KT 11/01 A3021 RMK A01 T01140014  RH  050%=      5-min Rain = 0
KEN1 171826Z 05008G13KT 11/02 A3021 RMK A01 T01140015  RH  051%=      5-min Rain = 0
KEN1 171827Z 00011KT 12/02 A3021 RMK A01 T01170017  RH  050%=      5-min Rain = 0
KEN1 171828Z 01008KT 12/02 A3021 RMK A01 T01190016  RH  049%=      5-min Rain = 0
KEN1 171829Z 35004KT 12/01 A3021 RMK A01 T01160014  RH  050%=      5-min Rain = 0
KEN1 171830Z 35006KT 12/02 A3021 RMK A01 T01160016  RH  050%=      5-min Rain = 0
KEN1 171831Z 01007KT 12/02 A3021 RMK A01 T01160016  RH  050%=      5-min Rain = 0
KEN1 171832Z 04007KT 12/02 A3021 RMK A01 T01160016  RH  050%=      5-min Rain = 0
KEN1 171833Z 03008KT 12/02 A3021 RMK A01 T01170015  RH  050%=      5-min Rain = 0
KEN1 171834Z 03007KT 12/02 A3021 RMK A01 T01170016  RH  050%=      5-min Rain = 0
KEN1 171835Z 02007KT 12/02 A3021 RMK A01 T01180016  RH  050%=      5-min Rain = 0
KEN1 171836Z 04005KT 12/02 A3021 RMK A01 T01170015  RH  049%=      5-min Rain = 0
KEN1 171837Z 03005KT 12/02 A3021 RMK A01 T01180015  RH  049%=      5-min Rain = 0
KEN1 171838Z 03008KT 12/01 A3021 RMK A01 T01180014  RH  049%=      5-min Rain = 0
KEN1 171839Z 03009KT 12/01 A302 RMK A01 T01180014  RH  049%=      5-min Rain = 0
KEN1 171840Z 02008KT 12/01 A302 RMK A01 T01180013  RH  049%=      5-min Rain = 0
KEN1 171841Z 02006KT 12/01 A302 RMK A01 T01170013  RH  049%=      5-min Rain = 0
KEN1 171842Z 02007KT 12/01 A302 RMK A01 T01160013  RH  049%=      5-min Rain = 0
KEN1 171843Z 02005KT 12/01 A302 RMK A01 T01160013  RH  049%=      5-min Rain = 0
KEN1 171844Z 03003KT 12/01 A302 RMK A01 T01170013  RH  049%=      5-min Rain = 0
KEN1 171845Z 04004KT 12/02 A302 RMK A01 T01180015  RH  049%=      5-min Rain = 0
KEN1 171846Z 05005KT 12/02 A302 RMK A01 T01220016  RH  048%=      5-min Rain = 0
KEN1 171847Z 06007KT 12/02 A3019 RMK A01 T01240015  RH  047%=      5-min Rain = 0
KEN1 171848Z 05008KT 12/01 A3019 RMK A01 T01230013  RH  047%=      5-min Rain = 0
KEN1 171849Z 05008KT 12/01 A3019 RMK A01 T01210013  RH  047%=      5-min Rain = 0
KEN1 171850Z 05007KT 12/01 A3019 RMK A01 T01200012  RH  047%=      5-min Rain = 0
KEN1 171851Z 04009KT 12/01 A3019 RMK A01 T01190011  RH  048%=      5-min Rain = 0
KEN1 171852Z 05007KT 12/01 A3019 RMK A01 T01200011  RH  047%=      5-min Rain = 0
KEN1 171853Z 05005KT 12/01 A3019 RMK A01 T01200012  RH  047%=      5-min Rain = 0
KEN1 171854Z 08003KT 12/01 A3019 RMK A01 T01200011  RH  047%=      5-min Rain = 0
KEN1 171855Z 06005KT 12/01 A3019 RMK A01 T01200011  RH  047%=      5-min Rain = 0
KEN1 171856Z 07004KT 12/01 A3019 RMK A01 T01190011  RH  047%=      5-min Rain = 0
KEN1 171857Z 01005KT 12/01 A3019 RMK A01 T01180011  RH  048%=      5-min Rain = 0
KEN1 171858Z 02006KT 12/01 A3019 RMK A01 T01180012  RH  048%=      5-min Rain = 0
KEN1 171859Z 01007KT 12/01 A3019 RMK A01 T01200013  RH  048%=      5-min Rain = 0
KEN1 171900Z 02008KT 12/01 A3019 RMK A01 T01210011  RH  047%=      5-min Rain = 0
KEN1 171901Z 03006KT 12/01 A3019 RMK A01 T01210009  RH  046%=      5-min Rain = 0
KEN1 171902Z 01004KT 12/01 A3019 RMK A01 T01230011  RH  046%=      5-min Rain = 0
KEN1 171903Z 03006KT 12/01 A3019 RMK A01 T01230010  RH  046%=      5-min Rain = 0
KEN1 171904Z 03005KT 12/01 A3019 RMK A01 T01210009  RH  046%=      5-min Rain = 0
KEN1 171905Z 03006KT 12/01 A3019 RMK A01 T01210011  RH  047%=      5-min Rain = 0
KEN1 171906Z 06004KT 12/01 A3019 RMK A01 T01210010  RH  046%=      5-min Rain = 0
KEN1 171907Z 04003KT 12/01 A3018 RMK A01 T01200009  RH  046%=      5-min Rain = 0
KEN1 171908Z 02005KT 12/01 A3018 RMK A01 T01210012  RH  047%=      5-min Rain = 0
KEN1 171909Z 03003KT 12/01 A3018 RMK A01 T01230012  RH  047%=      5-min Rain = 0
KEN1 171910Z 02003KT 12/01 A3018 RMK A01 T01220011  RH  046%=      5-min Rain = 0
KEN1 171911Z 01004KT 12/01 A3018 RMK A01 T01210011  RH  047%=      5-min Rain = 0
KEN1 171912Z 03002KT 12/01 A3018 RMK A01 T01200010  RH  047%=      5-min Rain = 0
KEN1 171913Z 12001KT 12/01 A3018 RMK A01 T01190008  RH  047%=      5-min Rain = 0
KEN1 171914Z 34004KT 12/01 A3018 RMK A01 T01210011  RH  047%=      5-min Rain = 0
KEN1 171915Z 33005KT 12/01 A3018 RMK A01 T01230012  RH  046%=      5-min Rain = 0
KEN1 171916Z 30003KT 12/01 A3018 RMK A01 T01230010  RH  046%=      5-min Rain = 0
KEN1 171917Z 31003KT 12/01 A3018 RMK A01 T01210010  RH  046%=      5-min Rain = 0
KEN1 171918Z 29002KT 12/01 A3018 RMK A01 T01210011  RH  047%=      5-min Rain = 0
KEN1 171919Z 24002KT 12/01 A3018 RMK A01 T01220012  RH  047%=      5-min Rain = 0
KEN1 171920Z 25001KT 12/01 A3018 RMK A01 T01230011  RH  046%=      5-min Rain = 0
KEN1 171921Z 28005KT 12/01 A3018 RMK A01 T01230011  RH  046%=      5-min Rain = 0
KEN1 171922Z 27003KT 12/01 A3018 RMK A01 T01230011  RH  046%=      5-min Rain = 0
KEN1 171923Z 28003KT 12/01 A3018 RMK A01 T01230011  RH  046%=      5-min Rain = 0
KEN1 171924Z 26003KT 12/01 A3018 RMK A01 T01240011  RH  046%=      5-min Rain = 0
KEN1 171925Z 23002KT 12/01 A3018 RMK A01 T01230009  RH  046%=      5-min Rain = 0
KEN1 171926Z 22003KT 12/01 A3017 RMK A01 T01230010  RH  046%=      5-min Rain = 0
KEN1 171927Z 23003KT 12/01 A3017 RMK A01 T01240010  RH  046%=      5-min Rain = 0
KEN1 171928Z 22003KT 12/01 A3017 RMK A01 T01230010  RH  046%=      5-min Rain = 0
KEN1 171929Z 20002KT 12/01 A3017 RMK A01 T01240011  RH  046%=      5-min Rain = 0
KEN1 171930Z 26001KT 13/01 A3017 RMK A01 T01250012  RH  046%=      5-min Rain = 0
KEN1 171931Z 19003KT 13/01 A3017 RMK A01 T01270012  RH  045%=      5-min Rain = 0
KEN1 171932Z 18004KT 13/01 A3017 RMK A01 T01290013  RH  045%=      5-min Rain = 0
KEN1 171933Z 18004KT 13/01 A3017 RMK A01 T01290012  RH  045%=      5-min Rain = 0
KEN1 171934Z 20006KT 13/01 A3017 RMK A01 T01280011  RH  045%=      5-min Rain = 0
KEN1 171935Z 22004KT 13/01 A3016 RMK A01 T01260010  RH  045%=      5-min Rain = 0
KEN1 171936Z 23003KT 13/01 A3016 RMK A01 T01250010  RH  045%=      5-min Rain = 0
KEN1 171937Z 22002KT 13/01 A3016 RMK A01 T01250009  RH  045%=      5-min Rain = 0
KEN1 171938Z 22003KT 13/01 A3016 RMK A01 T01250009  RH  045%=      5-min Rain = 0
KEN1 171939Z 20003KT 13/01 A3016 RMK A01 T01270011  RH  045%=      5-min Rain = 0
KEN1 171940Z 20001KT 13/01 A3016 RMK A01 T01280011  RH  045%=      5-min Rain = 0
KEN1 171941Z 01001KT 13/01 A3016 RMK A01 T01280011  RH  045%=      5-min Rain = 0
KEN1 171942Z 20001KT 13/01 A3016 RMK A01 T01290012  RH  045%=      5-min Rain = 0
KEN1 171943Z 20002KT 13/01 A3016 RMK A01 T01310011  RH  044%=      5-min Rain = 0
KEN1 171944Z 20004KT 13/01 A3016 RMK A01 T01320011  RH  044%=      5-min Rain = 0
KEN1 171945Z 19003KT 13/01 A3016 RMK A01 T01320011  RH  044%=      5-min Rain = 0
KEN1 171946Z 17003KT 13/01 A3016 RMK A01 T01310010  RH  044%=      5-min Rain = 0
KEN1 171947Z 17003KT 13/01 A3016 RMK A01 T01310010  RH  044%=      5-min Rain = 0
KEN1 171948Z 16003KT 13/01 A3015 RMK A01 T01310010  RH  043%=      5-min Rain = 0
KEN1 171949Z 15003KT 13/01 A3015 RMK A01 T01290009  RH  044%=      5-min Rain = 0
KEN1 171950Z 09001KT 13/01 A3015 RMK A01 T01270009  RH  044%=      5-min Rain = 0
KEN1 171951Z 20001KT 13/01 A3015 RMK A01 T01280010  RH  044%=      5-min Rain = 0
KEN1 171952Z 20002KT 13/01 A3015 RMK A01 T01310010  RH  044%=      5-min Rain = 0
KEN1 171953Z 16003KT 13/01 A3015 RMK A01 T01330012  RH  044%=      5-min Rain = 0
KEN1 171954Z 19004KT 14/01 A3015 RMK A01 T01350012  RH  043%=      5-min Rain = 0
KEN1 171955Z 21004KT 13/01 A3015 RMK A01 T01340010  RH  043%=      5-min Rain = 0
KEN1 171956Z 17002KT 13/01 A3015 RMK A01 T01320010  RH  043%=      5-min Rain = 0
KEN1 171957Z 18003KT 13/01 A3015 RMK A01 T01340010  RH  043%=      5-min Rain = 0
KEN1 171958Z 22003KT 13/01 A3015 RMK A01 T01340010  RH  043%=      5-min Rain = 0
KEN1 171959Z 18003KT 13/01 A3015 RMK A01 T01330010  RH  043%=      5-min Rain = 0
KEN1 172000Z 16004KT 13/01 A3014 RMK A01 T01340011  RH  043%=      5-min Rain = 0
KEN1 172001Z 15005KT 14/01 A3014 RMK A01 T01360011  RH  042%=      5-min Rain = 0
KEN1 172002Z 15005KT 14/01 A3014 RMK A01 T01360010  RH  042%=      5-min Rain = 0
KEN1 172003Z 14005KT 14/01 A3014 RMK A01 T01350010  RH  042%=      5-min Rain = 0
KEN1 172004Z 14005KT 14/01 A3014 RMK A01 T01350011  RH  043%=      5-min Rain = 0
KEN1 172005Z 15005KT 13/01 A3014 RMK A01 T01340010  RH  043%=      5-min Rain = 0
KEN1 172006Z 15002KT 13/01 A3014 RMK A01 T01310008  RH  043%=      5-min Rain = 0
KEN1 172007Z 12002KT 13/01 A3014 RMK A01 T01300009  RH  043%=      5-min Rain = 0
KEN1 172008Z 18003KT 13/01 A3014 RMK A01 T01310010  RH  044%=      5-min Rain = 0
KEN1 172009Z 20003KT 13/01 A3014 RMK A01 T01320009  RH  043%=      5-min Rain = 0
KEN1 172010Z 21002KT 13/01 A3014 RMK A01 T01310009  RH  043%=      5-min Rain = 0
KEN1 172011Z 21002KT 13/01 A3014 RMK A01 T01310009  RH  043%=      5-min Rain = 0
KEN1 172012Z 21002KT 13/01 A3014 RMK A01 T01310009  RH  043%=      5-min Rain = 0
KEN1 172013Z 18002KT 13/01 A3014 RMK A01 T01330009  RH  043%=      5-min Rain = 0
KEN1 172014Z 19003KT 13/01 A3014 RMK A01 T01340009  RH  043%=      5-min Rain = 0
KEN1 172015Z 14002KT 13/01 A3014 RMK A01 T01340010  RH  043%=      5-min Rain = 0
KEN1 172016Z 09002KT 14/01 A3014 RMK A01 T01360010  RH  042%=      5-min Rain = 0
KEN1 172017Z 04002KT 14/01 A3014 RMK A01 T01360009  RH  042%=      5-min Rain = 0
KEN1 172018Z 02001KT 14/01 A3014 RMK A01 T01350008  RH  042%=      5-min Rain = 0
KEN1 172019Z 31001KT 13/01 A3013 RMK A01 T01340008  RH  042%=      5-min Rain = 0
KEN1 172020Z 34003KT 13/01 A3013 RMK A01 T01340009  RH  043%=      5-min Rain = 0
KEN1 172021Z 34003KT 14/01 A3013 RMK A01 T01350009  RH  042%=      5-min Rain = 0
KEN1 172022Z 04003KT 14/01 A3013 RMK A01 T01350009  RH  042%=      5-min Rain = 0
KEN1 172023Z 04004KT 14/01 A3013 RMK A01 T01360008  RH  042%=      5-min Rain = 0
KEN1 172024Z 03005KT 13/01 A3013 RMK A01 T01340008  RH  042%=      5-min Rain = 0
KEN1 172025Z 01004KT 13/01 A3013 RMK A01 T01340007  RH  042%=      5-min Rain = 0
KEN1 172026Z 35002KT 13/01 A3013 RMK A01 T01330008  RH  043%=      5-min Rain = 0
KEN1 172027Z 34001KT 13/01 A3013 RMK A01 T01330008  RH  042%=      5-min Rain = 0
KEN1 172028Z 34001KT 14/01 A3013 RMK A01 T01360010  RH  042%=      5-min Rain = 0
KEN1 172029Z 35002KT 14/01 A3013 RMK A01 T01380009  RH  041%=      5-min Rain = 0
KEN1 172030Z 00000KT 14/01 A3013 RMK A01 T01390008  RH  041%=      5-min Rain = 0
KEN1 172031Z 06001KT 14/01 A3013 RMK A01 T01400008  RH  041%=      5-min Rain = 0
KEN1 172032Z 17002KT 14/01 A3013 RMK A01 T01420008  RH  040%=      5-min Rain = 0
KEN1 172033Z 15002KT 14/01 A3013 RMK A01 T01430008  RH  040%=      5-min Rain = 0
KEN1 172034Z 14003KT 14/01 A3013 RMK A01 T01430007  RH  039%=      5-min Rain = 0
KEN1 172035Z 16003KT 14/01 A3013 RMK A01 T01420007  RH  040%=      5-min Rain = 0
KEN1 172036Z 16003KT 14/01 A3013 RMK A01 T01420007  RH  040%=      5-min Rain = 0
KEN1 172037Z 14002KT 14/01 A3013 RMK A01 T01420008  RH  040%=      5-min Rain = 0
KEN1 172038Z 19001KT 14/01 A3012 RMK A01 T01410007  RH  040%=      5-min Rain = 0
KEN1 172039Z 26001KT 14/01 A3012 RMK A01 T01400005  RH  040%=      5-min Rain = 0
KEN1 172040Z 30001KT 14/00 A3012 RMK A01 T01390002  RH  039%=      5-min Rain = 0
KEN1 172041Z 21000KT 14/00 A3012 RMK A01 T01370002  RH  039%=      5-min Rain = 0
KEN1 172042Z 18003KT 14/00 A3012 RMK A01 T01380004  RH  040%=      5-min Rain = 0
KEN1 172043Z 19004KT 14/01 A3012 RMK A01 T01410008  RH  040%=      5-min Rain = 0
KEN1 172044Z 20005KT 14/01 A3012 RMK A01 T01440010  RH  040%=      5-min Rain = 0
KEN1 172045Z 18005KT 14/01 A3012 RMK A01 T01440009  RH  040%=      5-min Rain = 0
KEN1 172046Z 19003KT 14/01 A3012 RMK A01 T01420007  RH  040%=      5-min Rain = 0
KEN1 172047Z 20002KT 14/01 A3012 RMK A01 T01400007  RH  040%=      5-min Rain = 0
KEN1 172048Z 19002KT 14/01 A3012 RMK A01 T01390006  RH  040%=      5-min Rain = 0
KEN1 172049Z 15005KT 14/01 A3012 RMK A01 T01420008  RH  040%=      5-min Rain = 0
KEN1 172050Z 16004KT 14/01 A3012 RMK A01 T01440008  RH  040%=      5-min Rain = 0
KEN1 172051Z 17003KT 14/01 A3012 RMK A01 T01430006  RH  039%=      5-min Rain = 0
KEN1 172052Z 17004KT 14/01 A3012 RMK A01 T01410006  RH  040%=      5-min Rain = 0
KEN1 172053Z 17003KT 14/01 A3012 RMK A01 T01400008  RH  040%=      5-min Rain = 0
KEN1 172054Z 16002KT 14/01 A3012 RMK A01 T01400008  RH  040%=      5-min Rain = 0
KEN1 172055Z 18002KT 14/01 A3011 RMK A01 T01400008  RH  041%=      5-min Rain = 0
KEN1 172056Z 20003KT 14/01 A3011 RMK A01 T01400008  RH  040%=      5-min Rain = 0
KEN1 172057Z 20003KT 14/01 A3011 RMK A01 T01400008  RH  040%=      5-min Rain = 0
KEN1 172058Z 17002KT 14/01 A3011 RMK A01 T01400008  RH  040%=      5-min Rain = 0
KEN1 172059Z 16001KT 14/01 A3011 RMK A01 T01390008  RH  041%=      5-min Rain = 0
KEN1 172100Z 15000KT 14/01 A3011 RMK A01 T01400007  RH  040%=      5-min Rain = 0
KEN1 172101Z 07000KT 14/01 A3011 RMK A01 T01410008  RH  040%=      5-min Rain = 0
KEN1 172102Z 05002KT 14/01 A3011 RMK A01 T01420008  RH  040%=      5-min Rain = 0
KEN1 172103Z 27001KT 14/01 A3011 RMK A01 T01420008  RH  040%=      5-min Rain = 0
KEN1 172104Z 26002KT 14/01 A3011 RMK A01 T01420008  RH  040%=      5-min Rain = 0
KEN1 172105Z 21001KT 14/01 A3011 RMK A01 T01410008  RH  040%=      5-min Rain = 0
KEN1 172106Z 22001KT 14/01 A3011 RMK A01 T01420008  RH  040%=      5-min Rain = 0
KEN1 172107Z 21000KT 14/01 A3011 RMK A01 T01430009  RH  040%=      5-min Rain = 0
KEN1 172108Z 29002KT 15/01 A3011 RMK A01 T01450010  RH  040%=      5-min Rain = 0
KEN1 172109Z 24005KT 15/01 A3011 RMK A01 T01460010  RH  039%=      5-min Rain = 0
KEN1 172110Z 24004G9KT 15/01 A3011 RMK A01 T01460009  RH  039%=      5-min Rain = 0
KEN1 172111Z 22006KT 15/01 A3011 RMK A01 T01470009  RH  039%=      5-min Rain = 0
KEN1 172112Z 22006KT 15/01 A3011 RMK A01 T01470007  RH  039%=      5-min Rain = 0
KEN1 172113Z 21006KT 15/01 A3011 RMK A01 T01460007  RH  039%=      5-min Rain = 0
KEN1 172114Z 19003KT 14/01 A3011 RMK A01 T01440006  RH  039%=      5-min Rain = 0
KEN1 172115Z 23005KT 14/01 A3011 RMK A01 T01430007  RH  039%=      5-min Rain = 0
KEN1 172116Z 24004KT 14/01 A3011 RMK A01 T01440007  RH  039%=      5-min Rain = 0
KEN1 172117Z 22003KT 14/01 A3011 RMK A01 T01440006  RH  039%=      5-min Rain = 0
KEN1 172118Z 20002KT 14/01 A3011 RMK A01 T01440006  RH  039%=      5-min Rain = 0
KEN1 172119Z 23004KT 15/01 A3011 RMK A01 T01460005  RH  038%=      5-min Rain = 0
KEN1 172120Z 22007KT 15/01 A3011 RMK A01 T01460005  RH  038%=      5-min Rain = 0
KEN1 172121Z 23006KT 15/00 A3011 RMK A01 T01450003  RH  038%=      5-min Rain = 0
KEN1 172122Z 22007KT 14/01 A3011 RMK A01 T01440005  RH  038%=      5-min Rain = 0
KEN1 172123Z 24006KT 15/00 A3011 RMK A01 T01450003  RH  038%=      5-min Rain = 0
KEN1 172124Z 26005KT 14/00 A3011 RMK A01 T01420000  RH  038%=      5-min Rain = 0
KEN1 172125Z 25006KT 14/00 A3011 RMK A01 T01410002  RH  038%=      5-min Rain = 0
KEN1 172126Z 24005KT 14/00 A3011 RMK A01 T01410001  RH  038%=      5-min Rain = 0
KEN1 172127Z 22004KT 14/00 A3011 RMK A01 T01420000  RH  038%=      5-min Rain = 0
KEN1 172128Z 22004KT 14/M00 A3011 RMK A01 T01421001  RH  038%=      5-min Rain = 0
KEN1 172129Z 24003KT 14/00 A3011 RMK A01 T014200-0  RH  038%=      5-min Rain = 0
KEN1 172130Z 22004KT 14/M00 A3011 RMK A01 T01421001  RH  038%=      5-min Rain = 0
KEN1 172131Z 20006KT 14/00 A3011 RMK A01 T01430004  RH  038%=      5-min Rain = 0
KEN1 172132Z 22005KT 15/00 A3011 RMK A01 T01450003  RH  038%=      5-min Rain = 0
KEN1 172133Z 21004KT 14/00 A3011 RMK A01 T01430002  RH  038%=      5-min Rain = 0
KEN1 172134Z 19003KT 14/00 A3011 RMK A01 T01430002  RH  038%=      5-min Rain = 0
KEN1 172135Z 19003KT 14/00 A3011 RMK A01 T01420001  RH  038%=      5-min Rain = 0
KEN1 172136Z 23003KT 14/00 A3011 RMK A01 T01430002  RH  038%=      5-min Rain = 0
KEN1 172137Z 25004KT 14/00 A3011 RMK A01 T01440002  RH  038%=      5-min Rain = 0
KEN1 172138Z 23004KT 15/00 A3011 RMK A01 T01450002  RH  037%=      5-min Rain = 0
KEN1 172139Z 24004KT 15/00 A3011 RMK A01 T01450002  RH  038%=      5-min Rain = 0
KEN1 172140Z 25005KT 15/00 A3011 RMK A01 T01450002  RH  038%=      5-min Rain = 0
KEN1 172141Z 26003KT 14/00 A3011 RMK A01 T01440002  RH  038%=      5-min Rain = 0
KEN1 172142Z 26002KT 14/00 A3011 RMK A01 T01430002  RH  038%=      5-min Rain = 0
KEN1 172143Z 27002KT 14/00 A3011 RMK A01 T01430001  RH  038%=      5-min Rain = 0
KEN1 172144Z 24002KT 14/00 A3011 RMK A01 T01430003  RH  038%=      5-min Rain = 0
KEN1 172145Z 20003KT 14/00 A3011 RMK A01 T01440001  RH  038%=      5-min Rain = 0
KEN1 172146Z 19003KT 15/00 A3011 RMK A01 T01450001  RH  037%=      5-min Rain = 0
KEN1 172147Z 18002KT 15/00 A3011 RMK A01 T01450002  RH  038%=      5-min Rain = 0
KEN1 172148Z 21003KT 15/00 A3011 RMK A01 T01450002  RH  038%=      5-min Rain = 0
KEN1 172149Z 22004KT 15/00 A3011 RMK A01 T01450003  RH  038%=      5-min Rain = 0
KEN1 172150Z 19003KT 15/00 A3011 RMK A01 T01450003  RH  038%=      5-min Rain = 0
KEN1 172151Z 24005KT 15/00 A3011 RMK A01 T01450003  RH  038%=      5-min Rain = 0
KEN1 172152Z 23002KT 14/00 A3011 RMK A01 T01440002  RH  038%=      5-min Rain = 0
KEN1 172153Z 23003KT 14/00 A3011 RMK A01 T01440003  RH  038%=      5-min Rain = 0
KEN1 172154Z 19004KT 14/00 A3011 RMK A01 T01440003  RH  038%=      5-min Rain = 0
KEN1 172155Z 21004KT 15/01 A3011 RMK A01 T01450005  RH  038%=      5-min Rain = 0
KEN1 172156Z 22004KT 15/01 A3011 RMK A01 T01460005  RH  038%=      5-min Rain = 0
KEN1 172157Z 21006KT 15/01 A3011 RMK A01 T01450005  RH  038%=      5-min Rain = 0
KEN1 172158Z 23007KT 15/01 A3011 RMK A01 T01450005  RH  038%=      5-min Rain = 0
KEN1 172159Z 24004KT 14/00 A3011 RMK A01 T01440004  RH  039%=      5-min Rain = 0
KEN1 172200Z 26003KT 14/00 A3011 RMK A01 T01420004  RH  039%=      5-min Rain = 0
KEN1 172201Z 24005KT 14/01 A3011 RMK A01 T01430005  RH  039%=      5-min Rain = 0
KEN1 172202Z 22003KT 14/01 A3011 RMK A01 T01430005  RH  039%=      5-min Rain = 0
KEN1 172203Z 25004KT 14/01 A3011 RMK A01 T01430005  RH  039%=      5-min Rain = 0
KEN1 172204Z 25007KT 14/01 A3011 RMK A01 T01430006  RH  039%=      5-min Rain = 0
KEN1 172205Z 24004KT 14/01 A3011 RMK A01 T01440005  RH  039%=      5-min Rain = 0
KEN1 172206Z 19004KT 14/01 A3011 RMK A01 T01430005  RH  039%=      5-min Rain = 0
KEN1 172207Z 20008KT 15/01 A3011 RMK A01 T01450007  RH  039%=      5-min Rain = 0
KEN1 172208Z 20004KT 15/01 A3011 RMK A01 T01460007  RH  039%=      5-min Rain = 0
KEN1 172209Z 18003KT 15/01 A3011 RMK A01 T01460006  RH  039%=      5-min Rain = 0
KEN1 172210Z 19003KT 15/01 A3011 RMK A01 T01450005  RH  039%=      5-min Rain = 0
KEN1 172211Z 22005KT 15/01 A3011 RMK A01 T01450006  RH  039%=      5-min Rain = 0
KEN1 172212Z 24004KT 15/01 A3011 RMK A01 T01450006  RH  039%=      5-min Rain = 0
KEN1 172213Z 24003KT 15/01 A3011 RMK A01 T01450006  RH  039%=      5-min Rain = 0
KEN1 172214Z 25003KT 15/01 A3011 RMK A01 T01460006  RH  039%=      5-min Rain = 0
KEN1 172215Z 22002KT 15/01 A3011 RMK A01 T01470007  RH  038%=      5-min Rain = 0
KEN1 172216Z 21002KT 15/01 A3011 RMK A01 T01480006  RH  038%=      5-min Rain = 0
KEN1 172217Z 23005KT 15/01 A3011 RMK A01 T01490007  RH  038%=      5-min Rain = 0
KEN1 172218Z 24005KT 15/01 A3011 RMK A01 T01490007  RH  038%=      5-min Rain = 0
KEN1 172219Z 22005KT 15/01 A3011 RMK A01 T01480007  RH  038%=      5-min Rain = 0
KEN1 172220Z 21004KT 15/01 A3011 RMK A01 T01470006  RH  038%=      5-min Rain = 0
KEN1 172221Z 22005KT 15/01 A3011 RMK A01 T01460006  RH  038%=      5-min Rain = 0
KEN1 172222Z 22005KT 15/01 A3011 RMK A01 T01460006  RH  039%=      5-min Rain = 0
KEN1 172223Z 23007KT 15/01 A3011 RMK A01 T01460007  RH  039%=      5-min Rain = 0
KEN1 172224Z 25006KT 15/01 A3011 RMK A01 T01450006  RH  039%=      5-min Rain = 0
KEN1 172225Z 26005KT 14/01 A301 RMK A01 T01440006  RH  039%=      5-min Rain = 0
KEN1 172226Z 25005KT 14/01 A301 RMK A01 T01440006  RH  039%=      5-min Rain = 0
KEN1 172227Z 26004KT 15/01 A301 RMK A01 T01450007  RH  039%=      5-min Rain = 0
KEN1 172228Z 26006KT 15/01 A301 RMK A01 T01450007  RH  039%=      5-min Rain = 0
KEN1 172229Z 24006KT 15/01 A301 RMK A01 T01450007  RH  039%=      5-min Rain = 0
KEN1 172230Z 25005KT 14/01 A301 RMK A01 T01440007  RH  039%=      5-min Rain = 0
KEN1 172231Z 25004KT 14/01 A301 RMK A01 T01440007  RH  039%=      5-min Rain = 0
KEN1 172232Z 26003KT 14/01 A301 RMK A01 T01440007  RH  039%=      5-min Rain = 0
KEN1 172233Z 24003KT 15/01 A301 RMK A01 T01450007  RH  039%=      5-min Rain = 0
KEN1 172234Z 24003KT 15/01 A301 RMK A01 T01450006  RH  039%=      5-min Rain = 0
KEN1 172235Z 25003KT 15/01 A301 RMK A01 T01450006  RH  039%=      5-min Rain = 0
KEN1 172236Z 27002KT 15/01 A301 RMK A01 T01450007  RH  039%=      5-min Rain = 0
KEN1 172237Z 24003KT 15/01 A301 RMK A01 T01460007  RH  039%=      5-min Rain = 0
KEN1 172238Z 27003KT 15/01 A301 RMK A01 T01460007  RH  039%=      5-min Rain = 0
KEN1 172239Z 27003KT 15/01 A301 RMK A01 T01470007  RH  039%=      5-min Rain = 0
KEN1 172240Z 27003KT 15/01 A301 RMK A01 T01460007  RH  039%=      5-min Rain = 0
KEN1 172241Z 26003KT 15/01 A301 RMK A01 T01460007  RH  039%=      5-min Rain = 0
KEN1 172242Z 23003KT 15/01 A301 RMK A01 T01470007  RH  039%=      5-min Rain = 0
KEN1 172243Z 22002KT 15/01 A301 RMK A01 T01470007  RH  039%=      5-min Rain = 0
KEN1 172244Z 24002KT 15/01 A301 RMK A01 T01470007  RH  039%=      5-min Rain = 0
KEN1 172245Z 24002KT 15/01 A301 RMK A01 T01470007  RH  039%=      5-min Rain = 0
KEN1 172246Z 25003KT 15/01 A301 RMK A01 T01480008  RH  039%=      5-min Rain = 0
KEN1 172247Z 23002KT 15/01 A301 RMK A01 T01480007  RH  038%=      5-min Rain = 0
KEN1 172248Z 23002KT 15/01 A301 RMK A01 T01470007  RH  038%=      5-min Rain = 0
KEN1 172249Z 24002KT 15/01 A301 RMK A01 T01470007  RH  038%=      5-min Rain = 0
KEN1 172250Z 24003KT 15/01 A301 RMK A01 T01470007  RH  039%=      5-min Rain = 0
KEN1 172251Z 24002KT 15/01 A301 RMK A01 T01470007  RH  038%=      5-min Rain = 0
KEN1 172252Z 25002KT 15/01 A301 RMK A01 T01470007  RH  038%=      5-min Rain = 0
KEN1 172253Z 25003KT 15/01 A301 RMK A01 T01470007  RH  038%=      5-min Rain = 0
KEN1 172254Z 26002KT 15/01 A301 RMK A01 T01470007  RH  039%=      5-min Rain = 0
KEN1 172255Z 28001KT 15/01 A301 RMK A01 T01460008  RH  039%=      5-min Rain = 0
KEN1 172256Z 20002KT 15/01 A301 RMK A01 T01470007  RH  038%=      5-min Rain = 0
KEN1 172257Z 13002KT 15/01 A301 RMK A01 T01460007  RH  039%=      5-min Rain = 0
KEN1 172258Z 12003KT 15/01 A301 RMK A01 T01460007  RH  039%=      5-min Rain = 0
KEN1 172259Z 15003KT 15/01 A301 RMK A01 T01450007  RH  039%=      5-min Rain = 0
KEN1 172300Z 14003KT 14/01 A301 RMK A01 T01440007  RH  039%=      5-min Rain = 0
KEN1 172301Z 15002KT 14/01 A301 RMK A01 T01430007  RH  039%=      5-min Rain = 0
KEN1 172302Z 16002KT 14/01 A3009 RMK A01 T01430008  RH  040%=      5-min Rain = 0
KEN1 172303Z 16002KT 14/01 A3009 RMK A01 T01440008  RH  039%=      5-min Rain = 0
KEN1 172304Z 15003KT 14/01 A3009 RMK A01 T01440006  RH  039%=      5-min Rain = 0
KEN1 172305Z 16002KT 14/01 A3009 RMK A01 T01440008  RH  039%=      5-min Rain = 0
KEN1 172306Z 17003KT 14/01 A3009 RMK A01 T01430008  RH  040%=      5-min Rain = 0
KEN1 172307Z 17003KT 14/01 A3009 RMK A01 T01430008  RH  040%=      5-min Rain = 0
KEN1 172308Z 16003KT 14/01 A3009 RMK A01 T01430008  RH  040%=      5-min Rain = 0
KEN1 172309Z 16002KT 14/01 A3009 RMK A01 T01430007  RH  040%=      5-min Rain = 0
KEN1 172310Z 14002KT 14/01 A3009 RMK A01 T01430007  RH  040%=      5-min Rain = 0
KEN1 172311Z 14002KT 14/01 A3009 RMK A01 T01430008  RH  040%=      5-min Rain = 0
KEN1 172312Z 11001KT 14/01 A3009 RMK A01 T01430008  RH  040%=      5-min Rain = 0
KEN1 172313Z 11002KT 14/01 A3009 RMK A01 T01420007  RH  040%=      5-min Rain = 0
KEN1 172314Z 11002KT 14/01 A3009 RMK A01 T01400005  RH  040%=      5-min Rain = 0
KEN1 172315Z 12002KT 14/01 A3009 RMK A01 T01390005  RH  040%=      5-min Rain = 0
KEN1 172316Z 12002KT 14/01 A3009 RMK A01 T01370006  RH  040%=      5-min Rain = 0
KEN1 172317Z 12002KT 14/01 A3009 RMK A01 T01370007  RH  041%=      5-min Rain = 0
KEN1 172318Z 12002KT 14/01 A3009 RMK A01 T01360007  RH  041%=      5-min Rain = 0
KEN1 172319Z 13002KT 14/01 A3009 RMK A01 T01360007  RH  041%=      5-min Rain = 0
KEN1 172320Z 12002KT 14/01 A3009 RMK A01 T01350007  RH  042%=      5-min Rain = 0
KEN1 172321Z 12002KT 14/01 A3009 RMK A01 T01350007  RH  042%=      5-min Rain = 0
KEN1 172322Z 12002KT 14/01 A3009 RMK A01 T01350007  RH  042%=      5-min Rain = 0
KEN1 172323Z 12002KT 13/01 A3009 RMK A01 T01340007  RH  042%=      5-min Rain = 0
KEN1 172324Z 11002KT 13/01 A3009 RMK A01 T01330006  RH  042%=      5-min Rain = 0
KEN1 172325Z 09002KT 13/01 A3009 RMK A01 T01320006  RH  042%=      5-min Rain = 0
KEN1 172326Z 09003KT 13/01 A3009 RMK A01 T01310006  RH  042%=      5-min Rain = 0
KEN1 172327Z 09003KT 13/01 A3009 RMK A01 T01300005  RH  043%=      5-min Rain = 0
KEN1 172328Z 09004KT 13/00 A3009 RMK A01 T01280004  RH  043%=      5-min Rain = 0
KEN1 172329Z 09004KT 13/00 A3009 RMK A01 T01250002  RH  043%=      5-min Rain = 0
KEN1 172330Z 10004KT 12/00 A3009 RMK A01 T01230001  RH  043%=      5-min Rain = 0
KEN1 172331Z 10004KT 12/00 A3009 RMK A01 T01210002  RH  044%=      5-min Rain = 0
KEN1 172332Z 09004KT 12/00 A3009 RMK A01 T01200003  RH  044%=      5-min Rain = 0
KEN1 172333Z 09003KT 12/00 A3009 RMK A01 T01190002  RH  045%=      5-min Rain = 0
KEN1 172334Z 09003KT 12/00 A3009 RMK A01 T01180004  RH  045%=      5-min Rain = 0
KEN1 172335Z 08003KT 12/01 A3009 RMK A01 T01200006  RH  045%=      5-min Rain = 0
KEN1 172336Z 08003KT 12/01 A3009 RMK A01 T01220006  RH  045%=      5-min Rain = 0
KEN1 172337Z 08003KT 12/01 A3009 RMK A01 T01230006  RH  045%=      5-min Rain = 0
KEN1 172338Z 08003KT 12/01 A3009 RMK A01 T01230005  RH  044%=      5-min Rain = 0
KEN1 172339Z 08003KT 12/00 A3009 RMK A01 T01220004  RH  044%=      5-min Rain = 0
KEN1 172340Z 08003KT 12/00 A3009 RMK A01 T01220004  RH  044%=      5-min Rain = 0
KEN1 172341Z 07003KT 12/00 A3009 RMK A01 T01210002  RH  044%=      5-min Rain = 0
KEN1 172342Z 08003KT 12/00 A3009 RMK A01 T01180001  RH  045%=      5-min Rain = 0
KEN1 172343Z 08003KT 12/00 A3009 RMK A01 T01170001  RH  045%=      5-min Rain = 0
KEN1 172344Z 08003KT 12/00 A3009 RMK A01 T01150000  RH  045%=      5-min Rain = 0
KEN1 172345Z 08003KT 12/00 A3009 RMK A01 T01150002  RH  046%=      5-min Rain = 0
KEN1 172346Z 08003KT 12/00 A3009 RMK A01 T01150003  RH  046%=      5-min Rain = 0
KEN1 172347Z 09003KT 12/00 A3009 RMK A01 T01150003  RH  046%=      5-min Rain = 0
KEN1 172348Z 09003KT 12/00 A3009 RMK A01 T01150003  RH  046%=      5-min Rain = 0
KEN1 172349Z 09004KT 12/00 A3009 RMK A01 T01150003  RH  046%=      5-min Rain = 0
KEN1 172350Z 09004KT 11/00 A3009 RMK A01 T01140002  RH  046%=      5-min Rain = 0
KEN1 172351Z 09004KT 11/00 A3009 RMK A01 T01120001  RH  046%=      5-min Rain = 0
KEN1 172352Z 09004KT 11/00 A3009 RMK A01 T01110001  RH  047%=      5-min Rain = 0
KEN1 172353Z 09004KT 11/00 A3009 RMK A01 T01100001  RH  047%=      5-min Rain = 0
KEN1 172354Z 09004KT 11/00 A3009 RMK A01 T01080001  RH  047%=      5-min Rain = 0
KEN1 172355Z 09004KT 11/00 A3009 RMK A01 T01080001  RH  048%=      5-min Rain = 0
KEN1 172356Z 09003KT 11/00 A3009 RMK A01 T01080002  RH  048%=      5-min Rain = 0
KEN1 172357Z 09003KT 11/00 A3009 RMK A01 T01110002  RH  047%=      5-min Rain = 0
KEN1 172358Z 09003KT 11/00 A3009 RMK A01 T01100001  RH  047%=      5-min Rain = 0
KEN1 172359Z 09003KT 11/00 A3009 RMK A01 T01090001  RH  047%=      5-min Rain = 0
KEN1 180000Z 09003KT 11/00 A3009 RMK A01 T01090001  RH  047%=      5-min Rain = 0
KEN1 180001Z 09003KT 11/00 A3009 RMK A01 T01100002  RH  047%=      5-min Rain = 0
KEN1 180002Z 09003KT 11/00 A3009 RMK A01 T01100002  RH  047%=      5-min Rain = 0
KEN1 180003Z 09004KT 11/00 A3009 RMK A01 T01100002  RH  047%=      5-min Rain = 0
KEN1 180004Z 09004KT 11/00 A3009 RMK A01 T01110003  RH  047%=      5-min Rain = 0
KEN1 180005Z 08004KT 11/00 A3009 RMK A01 T01110001  RH  047%=      5-min Rain = 0
KEN1 180006Z 08004KT 11/M00 A301 RMK A01 T01071003  RH  047%=      5-min Rain = 0
KEN1 180007Z 08004KT 10/M00 A301 RMK A01 T01021004  RH  048%=      5-min Rain = 0
KEN1 180008Z 09004KT 10/M00 A301 RMK A01 T00991003  RH  049%=      5-min Rain = 0
KEN1 180009Z 09005KT 10/M00 A3009 RMK A01 T00981002  RH  050%=      5-min Rain = 0
KEN1 180010Z 09005KT 10/M00 A3009 RMK A01 T00971003  RH  050%=      5-min Rain = 0
KEN1 180011Z 09005KT 09/M00 A3009 RMK A01 T00941004  RH  050%=      5-min Rain = 0
KEN1 180012Z 09005KT 09/M01 A3009 RMK A01 T00921005  RH  051%=      5-min Rain = 0
KEN1 180013Z 09005KT 09/M01 A3009 RMK A01 T00891005  RH  052%=      5-min Rain = 0
KEN1 180014Z 09005KT 09/M00 A3009 RMK A01 T00891004  RH  052%=      5-min Rain = 0
KEN1 180015Z 09005KT 09/M01 A3009 RMK A01 T00871006  RH  052%=      5-min Rain = 0
KEN1 180016Z 10005KT 08/M01 A3009 RMK A01 T00841007  RH  053%=      5-min Rain = 0
KEN1 180017Z 10005KT 08/M01 A3009 RMK A01 T00811008  RH  053%=      5-min Rain = 0
KEN1 180018Z 10005KT 08/M01 A3009 RMK A01 T00791007  RH  055%=      5-min Rain = 0
KEN1 180019Z 10005KT 08/M01 A3009 RMK A01 T00791005  RH  055%=      5-min Rain = 0
KEN1 180020Z 10005KT 08/M00 A3009 RMK A01 T00801004  RH  055%=      5-min Rain = 0
KEN1 180021Z 10006KT 08/M00 A3009 RMK A01 T00821003  RH  055%=      5-min Rain = 0
KEN1 180022Z 10006KT 08/M00 A3009 RMK A01 T00831004  RH  054%=      5-min Rain = 0
KEN1 180023Z 10006KT 08/M01 A3009 RMK A01 T00811006  RH  054%=      5-min Rain = 0
KEN1 180024Z 10006KT 08/M01 A3009 RMK A01 T00781006  RH  055%=      5-min Rain = 0
KEN1 180025Z 10006KT 08/M01 A3009 RMK A01 T00781005  RH  056%=      5-min Rain = 0
KEN1 180026Z 10006KT 08/M01 A3009 RMK A01 T00771005  RH  056%=      5-min Rain = 0
KEN1 180027Z 10005KT 08/M01 A3009 RMK A01 T00771005  RH  056%=      5-min Rain = 0
KEN1 180028Z 10005KT 08/M01 A3009 RMK A01 T00771005  RH  056%=      5-min Rain = 0
KEN1 180029Z 10005KT 08/M00 A3009 RMK A01 T00771004  RH  057%=      5-min Rain = 0
KEN1 180030Z 10005KT 08/M00 A3009 RMK A01 T00791002  RH  056%=      5-min Rain = 0
KEN1 180031Z 10005KT 08/00 A3009 RMK A01 T00840001  RH  056%=      5-min Rain = 0
KEN1 180032Z 10005KT 09/00 A301 RMK A01 T00890000  RH  054%=      5-min Rain = 0
KEN1 180033Z 10005KT 09/M00 A301 RMK A01 T00861004  RH  053%=      5-min Rain = 0
KEN1 180034Z 10005KT 08/M01 A3009 RMK A01 T00821006  RH  054%=      5-min Rain = 0
KEN1 180035Z 10006KT 08/M00 A3009 RMK A01 T00801003  RH  056%=      5-min Rain = 0
KEN1 180036Z 11006KT 08/M00 A3009 RMK A01 T00811002  RH  056%=      5-min Rain = 0
KEN1 180037Z 11007KT 08/M00 A3009 RMK A01 T00811003  RH  055%=      5-min Rain = 0
KEN1 180038Z 11008KT 08/M00 A3009 RMK A01 T00801003  RH  056%=      5-min Rain = 0
KEN1 180039Z 11008KT 08/M00 A3009 RMK A01 T00791003  RH  056%=      5-min Rain = 0
KEN1 180040Z 11008KT 08/M00 A3009 RMK A01 T00781002  RH  057%=      5-min Rain = 0
KEN1 180041Z 11007KT 08/M00 A3009 RMK A01 T00781002  RH  057%=      5-min Rain = 0
KEN1 180042Z 11006KT 08/M00 A3009 RMK A01 T00781001  RH  057%=      5-min Rain = 0
KEN1 180043Z 12006KT 08/M00 A3009 RMK A01 T00781001  RH  057%=      5-min Rain = 0
KEN1 180044Z 12007KT 08/M00 A3009 RMK A01 T00771001  RH  058%=      5-min Rain = 0
KEN1 180045Z 12007KT 08/M00 A3009 RMK A01 T00771002  RH  058%=      5-min Rain = 0
KEN1 180046Z 12007KT 08/M00 A3009 RMK A01 T00761002  RH  058%=      5-min Rain = 0
KEN1 180047Z 12008KT 08/M00 A3009 RMK A01 T00751002  RH  058%=      5-min Rain = 0
KEN1 180048Z 12008KT 08/M00 A3009 RMK A01 T00751002  RH  058%=      5-min Rain = 0
KEN1 180049Z 12008KT 07/M00 A3009 RMK A01 T00741002  RH  059%=      5-min Rain = 0
KEN1 180050Z 13008KT 07/M00 A3009 RMK A01 T00741001  RH  059%=      5-min Rain = 0
KEN1 180051Z 13008KT 07/M00 A3009 RMK A01 T00741001  RH  059%=      5-min Rain = 0
KEN1 180052Z 13008KT 07/M00 A3009 RMK A01 T00741001  RH  059%=      5-min Rain = 0
KEN1 180053Z 13008KT 07/M00 A3009 RMK A01 T00741001  RH  059%=      5-min Rain = 0
KEN1 180054Z 13008KT 07/M00 A3009 RMK A01 T00741001  RH  059%=      5-min Rain = 0
KEN1 180055Z 13008KT 07/M00 A3009 RMK A01 T00741001  RH  059%=      5-min Rain = 0
KEN1 180056Z 14008KT 07/M00 A3009 RMK A01 T00731001  RH  059%=      5-min Rain = 0
KEN1 180057Z 14008KT 07/M00 A3009 RMK A01 T00731001  RH  059%=      5-min Rain = 0
KEN1 180058Z 15008KT 07/M00 A3009 RMK A01 T00721001  RH  060%=      5-min Rain = 0
KEN1 180059Z 15008KT 07/M00 A3009 RMK A01 T00721001  RH  060%=      5-min Rain = 0
KEN1 180100Z 15007KT 07/00 A3009 RMK A01 T007200-0  RH  060%=      5-min Rain = 0
KEN1 180101Z 15007KT 07/00 A3009 RMK A01 T00730001  RH  060%=      5-min Rain = 0
KEN1 180102Z 14007KT 07/00 A3009 RMK A01 T007400-0  RH  059%=      5-min Rain = 0
KEN1 180103Z 14006KT 07/00 A3009 RMK A01 T00740000  RH  059%=      5-min Rain = 0
KEN1 180104Z 14006KT 07/M00 A301 RMK A01 T00721001  RH  060%=      5-min Rain = 0
KEN1 180105Z 14007KT 07/M00 A301 RMK A01 T00711001  RH  060%=      5-min Rain = 0
KEN1 180106Z 14008KT 07/M00 A301 RMK A01 T00701001  RH  060%=      5-min Rain = 0
KEN1 180107Z 15007KT 07/M00 A301 RMK A01 T00701001  RH  061%=      5-min Rain = 0
KEN1 180108Z 15007KT 07/M00 A301 RMK A01 T00691001  RH  061%=      5-min Rain = 0
KEN1 180109Z 15007KT 07/M00 A301 RMK A01 T00681001  RH  061%=      5-min Rain = 0
KEN1 180110Z 14007KT 07/M00 A301 RMK A01 T00671001  RH  062%=      5-min Rain = 0
KEN1 180111Z 14007KT 07/M00 A301 RMK A01 T00671001  RH  062%=      5-min Rain = 0
KEN1 180112Z 15008KT 07/M00 A301 RMK A01 T00661002  RH  062%=      5-min Rain = 0
KEN1 180113Z 15009KT 07/M00 A301 RMK A01 T00651002  RH  062%=      5-min Rain = 0
KEN1 180114Z 15009KT 07/M00 A301 RMK A01 T00651002  RH  062%=      5-min Rain = 0
KEN1 180115Z 15009KT 07/M00 A301 RMK A01 T00661001  RH  062%=      5-min Rain = 0
KEN1 180116Z 15009KT 07/M00 A301 RMK A01 T00671001  RH  062%=      5-min Rain = 0
KEN1 180117Z 15009KT 07/M00 A3009 RMK A01 T00681001  RH  062%=      5-min Rain = 0
KEN1 180118Z 15009KT 07/M00 A3009 RMK A01 T00681001  RH  061%=      5-min Rain = 0
KEN1 180119Z 15009KT 07/M00 A3009 RMK A01 T00661002  RH  062%=      5-min Rain = 0
KEN1 180120Z 16009KT 07/M00 A3009 RMK A01 T00651003  RH  062%=      5-min Rain = 0
KEN1 180121Z 16009KT 06/M00 A3009 RMK A01 T00641003  RH  062%=      5-min Rain = 0
KEN1 180122Z 15008KT 06/M00 A3009 RMK A01 T00631003  RH  063%=      5-min Rain = 0
KEN1 180123Z 15008KT 06/M00 A3009 RMK A01 T00621003  RH  063%=      5-min Rain = 0
KEN1 180124Z 15007KT 06/M00 A3009 RMK A01 T00611004  RH  063%=      5-min Rain = 0
KEN1 180125Z 15007KT 06/M00 A3009 RMK A01 T00611004  RH  063%=      5-min Rain = 0
KEN1 180126Z 15007KT 06/M00 A3009 RMK A01 T00601004  RH  064%=      5-min Rain = 0
KEN1 180127Z 15006KT 06/M00 A3009 RMK A01 T00591004  RH  064%=      5-min Rain = 0
KEN1 180128Z 15006KT 06/M00 A3009 RMK A01 T00581004  RH  064%=      5-min Rain = 0
KEN1 180129Z 15006KT 06/M01 A3009 RMK A01 T00571005  RH  064%=      5-min Rain = 0
KEN1 180130Z 15006KT 06/M01 A3009 RMK A01 T00571005  RH  065%=      5-min Rain = 0
KEN1 180131Z 15006KT 06/M01 A3009 RMK A01 T00561005  RH  065%=      5-min Rain = 0
KEN1 180132Z 16006KT 06/M01 A3009 RMK A01 T00551005  RH  065%=      5-min Rain = 0
KEN1 180133Z 16006KT 06/M01 A301 RMK A01 T00551005  RH  065%=      5-min Rain = 0
KEN1 180134Z 16006KT 05/M01 A301 RMK A01 T00541005  RH  066%=      5-min Rain = 0
KEN1 180135Z 16007KT 05/M01 A301 RMK A01 T00541005  RH  066%=      5-min Rain = 0
KEN1 180136Z 16007KT 05/M01 A301 RMK A01 T00541005  RH  066%=      5-min Rain = 0
KEN1 180137Z 16007KT 05/M01 A301 RMK A01 T00541005  RH  066%=      5-min Rain = 0
KEN1 180138Z 16007KT 05/M00 A301 RMK A01 T00541004  RH  066%=      5-min Rain = 0
KEN1 180139Z 16006KT 05/M00 A301 RMK A01 T00541004  RH  066%=      5-min Rain = 0
KEN1 180140Z 16006KT 06/M00 A301 RMK A01 T00551003  RH  066%=      5-min Rain = 0
KEN1 180141Z 17006KT 06/M00 A301 RMK A01 T00551003  RH  066%=      5-min Rain = 0
KEN1 180142Z 17005KT 06/M00 A301 RMK A01 T00551004  RH  066%=      5-min Rain = 0
KEN1 180143Z 17005KT 06/M00 A301 RMK A01 T00551004  RH  066%=      5-min Rain = 0
KEN1 180144Z 17004KT 05/M01 A301 RMK A01 T00531005  RH  066%=      5-min Rain = 0
KEN1 180145Z 16004KT 05/M01 A301 RMK A01 T00521005  RH  066%=      5-min Rain = 0
KEN1 180146Z 17005KT 05/M01 A3011 RMK A01 T00511005  RH  067%=      5-min Rain = 0
KEN1 180147Z 18006KT 05/M01 A3011 RMK A01 T00501005  RH  067%=      5-min Rain = 0
KEN1 180148Z 18007KT 05/M00 A3011 RMK A01 T00501004  RH  068%=      5-min Rain = 0
KEN1 180149Z 17006KT 05/M00 A3011 RMK A01 T00511004  RH  068%=      5-min Rain = 0
KEN1 180150Z 17005KT 05/M00 A301 RMK A01 T00521004  RH  067%=      5-min Rain = 0
KEN1 180151Z 17005KT 05/M00 A301 RMK A01 T00521003  RH  067%=      5-min Rain = 0
KEN1 180152Z 16005KT 05/M00 A301 RMK A01 T00521003  RH  067%=      5-min Rain = 0
KEN1 180153Z 16005KT 05/M00 A301 RMK A01 T00521004  RH  067%=      5-min Rain = 0
KEN1 180154Z 16005KT 05/M00 A301 RMK A01 T00511004  RH  068%=      5-min Rain = 0
KEN1 180155Z 16005KT 05/M01 A301 RMK A01 T00501005  RH  068%=      5-min Rain = 0
KEN1 180156Z 17005KT 05/M01 A301 RMK A01 T00491007  RH  067%=      5-min Rain = 0
KEN1 180157Z 17005KT 05/M01 A301 RMK A01 T00471006  RH  068%=      5-min Rain = 0
KEN1 180158Z 18005KT 05/M01 A301 RMK A01 T00471005  RH  069%=      5-min Rain = 0
KEN1 180159Z 18006KT 05/M01 A3011 RMK A01 T00471005  RH  069%=      5-min Rain = 0
KEN1 180200Z 18005KT 05/M01 A3011 RMK A01 T00461007  RH  069%=      5-min Rain = 0
KEN1 180201Z 18004KT 04/M01 A3011 RMK A01 T00441007  RH  069%=      5-min Rain = 0
KEN1 180202Z 18005KT 04/M01 A3011 RMK A01 T00441006  RH  070%=      5-min Rain = 0
KEN1 180203Z 17005KT 04/M01 A3011 RMK A01 T00441006  RH  070%=      5-min Rain = 0
KEN1 180204Z 17005KT 05/M01 A3011 RMK A01 T00451005  RH  070%=      5-min Rain = 0
KEN1 180205Z 17005KT 05/M01 A3011 RMK A01 T00461006  RH  069%=      5-min Rain = 0
KEN1 180206Z 16005KT 05/M01 A3011 RMK A01 T00451007  RH  069%=      5-min Rain = 0
KEN1 180207Z 17004KT 04/M01 A3011 RMK A01 T00441006  RH  070%=      5-min Rain = 0
KEN1 180208Z 16004KT 04/M01 A3011 RMK A01 T00441006  RH  070%=      5-min Rain = 0
KEN1 180209Z 15004KT 04/M01 A3011 RMK A01 T00441006  RH  070%=      5-min Rain = 0
KEN1 180210Z 15004KT 04/M01 A3011 RMK A01 T00431006  RH  070%=      5-min Rain = 0
KEN1 180211Z 16004KT 04/M01 A3011 RMK A01 T00431007  RH  070%=      5-min Rain = 0
KEN1 180212Z 16004KT 04/M01 A3011 RMK A01 T00421008  RH  070%=      5-min Rain = 0
KEN1 180213Z 16003KT 04/M01 A3011 RMK A01 T00411009  RH  070%=      5-min Rain = 0
KEN1 180214Z 16004KT 04/M01 A3011 RMK A01 T00401009  RH  070%=      5-min Rain = 0
KEN1 180215Z 16003KT 04/M01 A3011 RMK A01 T00391009  RH  071%=      5-min Rain = 0
KEN1 180216Z 17003KT 04/M01 A3011 RMK A01 T00381009  RH  071%=      5-min Rain = 0
KEN1 180217Z 17004KT 04/M01 A3011 RMK A01 T00381009  RH  071%=      5-min Rain = 0
KEN1 180218Z 17004KT 04/M01 A3011 RMK A01 T00381009  RH  072%=      5-min Rain = 0
KEN1 180219Z 17005KT 04/M01 A3011 RMK A01 T00381009  RH  072%=      5-min Rain = 0
KEN1 180220Z 16004KT 04/M01 A3011 RMK A01 T00371009  RH  072%=      5-min Rain = 0
KEN1 180221Z 16004KT 04/M01 A3011 RMK A01 T00371008  RH  072%=      5-min Rain = 0
KEN1 180222Z 16005KT 04/M01 A3011 RMK A01 T00391006  RH  073%=      5-min Rain = 0
KEN1 180223Z 17005KT 04/M01 A3011 RMK A01 T00411005  RH  072%=      5-min Rain = 0
KEN1 180224Z 17005KT 04/M01 A3011 RMK A01 T00431005  RH  071%=      5-min Rain = 0
KEN1 180225Z 17005KT 04/M01 A3011 RMK A01 T00441006  RH  070%=      5-min Rain = 0
KEN1 180226Z 17005KT 04/M01 A3011 RMK A01 T00441005  RH  070%=      5-min Rain = 0
KEN1 180227Z 17006KT 05/M01 A3011 RMK A01 T00451005  RH  070%=      5-min Rain = 0
KEN1 180228Z 17005KT 05/M01 A3011 RMK A01 T00461006  RH  069%=      5-min Rain = 0
KEN1 180229Z 17005KT 05/M01 A3011 RMK A01 T00461006  RH  069%=      5-min Rain = 0
KEN1 180230Z 17006KT 05/M01 A3011 RMK A01 T00451007  RH  069%=      5-min Rain = 0
KEN1 180231Z 17006KT 05/M01 A3011 RMK A01 T00451006  RH  069%=      5-min Rain = 0
KEN1 180232Z 17006KT 05/M01 A3011 RMK A01 T00451006  RH  070%=      5-min Rain = 0
KEN1 180233Z 17006KT 05/M01 A3011 RMK A01 T00451006  RH  069%=      5-min Rain = 0
KEN1 180234Z 17006KT 05/M01 A3011 RMK A01 T00451006  RH  070%=      5-min Rain = 0
KEN1 180235Z 17006KT 05/M01 A3011 RMK A01 T00451006  RH  070%=      5-min Rain = 0
KEN1 180236Z 17006KT 05/M01 A3011 RMK A01 T00461005  RH  070%=      5-min Rain = 0
KEN1 180237Z 16006KT 05/M01 A3011 RMK A01 T00461005  RH  069%=      5-min Rain = 0
KEN1 180238Z 16006KT 05/M01 A3011 RMK A01 T00471005  RH  069%=      5-min Rain = 0
KEN1 180239Z 16006KT 05/M01 A3011 RMK A01 T00461006  RH  069%=      5-min Rain = 0
KEN1 180240Z 16006KT 05/M01 A3011 RMK A01 T00451006  RH  069%=      5-min Rain = 0
KEN1 180241Z 15006KT 05/M01 A3011 RMK A01 T00451006  RH  070%=      5-min Rain = 0
KEN1 180242Z 16006KT 04/M01 A3011 RMK A01 T00441006  RH  070%=      5-min Rain = 0
KEN1 180243Z 16006KT 04/M01 A3011 RMK A01 T00441006  RH  070%=      5-min Rain = 0
KEN1 180244Z 16005KT 04/M01 A3011 RMK A01 T00441005  RH  070%=      5-min Rain = 0
KEN1 180245Z 16005KT 05/M01 A3011 RMK A01 T00451005  RH  070%=      5-min Rain = 0
KEN1 180246Z 16005KT 04/M01 A3011 RMK A01 T00441006  RH  070%=      5-min Rain = 0
KEN1 180247Z 16005KT 04/M01 A3011 RMK A01 T00441006  RH  070%=      5-min Rain = 0
KEN1 180248Z 16005KT 04/M01 A3011 RMK A01 T00431006  RH  070%=      5-min Rain = 0
KEN1 180249Z 16005KT 04/M01 A3011 RMK A01 T00431005  RH  071%=      5-min Rain = 0
KEN1 180250Z 16005KT 04/M01 A3011 RMK A01 T00441005  RH  071%=      5-min Rain = 0
KEN1 180251Z 16005KT 05/M00 A3011 RMK A01 T00451004  RH  070%=      5-min Rain = 0
KEN1 180252Z 16005KT 05/M00 A3011 RMK A01 T00461003  RH  070%=      5-min Rain = 0
KEN1 180253Z 15005KT 05/M00 A3011 RMK A01 T00481003  RH  069%=      5-min Rain = 0
KEN1 180254Z 16005KT 05/M00 A3011 RMK A01 T00481004  RH  069%=      5-min Rain = 0
KEN1 180255Z 15004KT 05/M01 A3011 RMK A01 T00471005  RH  069%=      5-min Rain = 0
KEN1 180256Z 16005KT 05/M01 A3011 RMK A01 T00451005  RH  070%=      5-min Rain = 0
KEN1 180257Z 15005KT 04/M01 A3011 RMK A01 T00441005  RH  070%=      5-min Rain = 0
KEN1 180258Z 15005KT 04/M01 A3011 RMK A01 T00431006  RH  071%=      5-min Rain = 0
KEN1 180259Z 15006KT 04/M01 A3011 RMK A01 T00421005  RH  071%=      5-min Rain = 0
KEN1 180300Z 15006KT 04/M01 A3011 RMK A01 T00411006  RH  071%=      5-min Rain = 0
KEN1 180301Z 15006KT 04/M01 A3011 RMK A01 T00411005  RH  072%=      5-min Rain = 0
KEN1 180302Z 15006KT 04/M00 A3011 RMK A01 T00421004  RH  072%=      5-min Rain = 0
KEN1 180303Z 16006KT 04/M00 A3011 RMK A01 T00431003  RH  072%=      5-min Rain = 0
KEN1 180304Z 15006KT 04/M00 A3011 RMK A01 T00441002  RH  072%=      5-min Rain = 0
KEN1 180305Z 15005KT 05/M00 A3011 RMK A01 T00451002  RH  071%=      5-min Rain = 0
KEN1 180306Z 15005KT 05/M00 A3011 RMK A01 T00461002  RH  071%=      5-min Rain = 0
KEN1 180307Z 15005KT 05/M00 A3011 RMK A01 T00461002  RH  071%=      5-min Rain = 0
KEN1 180308Z 16005KT 05/M00 A3011 RMK A01 T00461002  RH  071%=      5-min Rain = 0
KEN1 180309Z 16005KT 05/M00 A3011 RMK A01 T00461002  RH  071%=      5-min Rain = 0
KEN1 180310Z 16005KT 05/M00 A3011 RMK A01 T00451003  RH  071%=      5-min Rain = 0
KEN1 180311Z 15005KT 04/M00 A3011 RMK A01 T00441003  RH  071%=      5-min Rain = 0
KEN1 180312Z 16005KT 04/M00 A3011 RMK A01 T00431003  RH  072%=      5-min Rain = 0
KEN1 180313Z 15005KT 04/M00 A3011 RMK A01 T00421003  RH  072%=      5-min Rain = 0
KEN1 180314Z 15005KT 04/M00 A3011 RMK A01 T00421003  RH  072%=      5-min Rain = 0
KEN1 180315Z 16005KT 04/M00 A3011 RMK A01 T00421003  RH  072%=      5-min Rain = 0
KEN1 180316Z 16005KT 04/M00 A3011 RMK A01 T00411004  RH  072%=      5-min Rain = 0
KEN1 180317Z 16005KT 04/M00 A3011 RMK A01 T00411004  RH  073%=      5-min Rain = 0
KEN1 180318Z 16005KT 04/M00 A3011 RMK A01 T00401003  RH  073%=      5-min Rain = 0
KEN1 180319Z 16005KT 04/M00 A3011 RMK A01 T00401003  RH  073%=      5-min Rain = 0
KEN1 180320Z 16005KT 04/M00 A3011 RMK A01 T00401003  RH  073%=      5-min Rain = 0
KEN1 180321Z 15005KT 04/M00 A3011 RMK A01 T00401003  RH  073%=      5-min Rain = 0
KEN1 180322Z 16005KT 04/M00 A3011 RMK A01 T00411002  RH  073%=      5-min Rain = 0
KEN1 180323Z 15006KT 04/M00 A3011 RMK A01 T00421002  RH  073%=      5-min Rain = 0
KEN1 180324Z 15006KT 04/M00 A3011 RMK A01 T00421004  RH  072%=      5-min Rain = 0
KEN1 180325Z 15006KT 04/M01 A3011 RMK A01 T00401005  RH  072%=      5-min Rain = 0
KEN1 180326Z 15006KT 04/M00 A3011 RMK A01 T00401004  RH  073%=      5-min Rain = 0
KEN1 180327Z 15005KT 04/M00 A3011 RMK A01 T00391004  RH  073%=      5-min Rain = 0
KEN1 180328Z 14006KT 04/M00 A3011 RMK A01 T00391003  RH  074%=      5-min Rain = 0
KEN1 180329Z 14006KT 04/M00 A3011 RMK A01 T00401003  RH  074%=      5-min Rain = 0
KEN1 180330Z 15006KT 04/M00 A3011 RMK A01 T00391003  RH  074%=      5-min Rain = 0
KEN1 180331Z 15006KT 04/M00 A3011 RMK A01 T00401003  RH  074%=      5-min Rain = 0
KEN1 180332Z 14005KT 04/M00 A3011 RMK A01 T00401003  RH  074%=      5-min Rain = 0
KEN1 180333Z 14005KT 04/M00 A3011 RMK A01 T00401003  RH  074%=      5-min Rain = 0
KEN1 180334Z 14005KT 04/M00 A3011 RMK A01 T00401003  RH  074%=      5-min Rain = 0
KEN1 180335Z 15005KT 04/M00 A3011 RMK A01 T00401002  RH  074%=      5-min Rain = 0
KEN1 180336Z 15006KT 04/M00 A3011 RMK A01 T00391003  RH  074%=      5-min Rain = 0
KEN1 180337Z 15006KT 04/M00 A3011 RMK A01 T00381003  RH  074%=      5-min Rain = 0
KEN1 180338Z 15006KT 04/M00 A3011 RMK A01 T00371004  RH  075%=      5-min Rain = 0
KEN1 180339Z 15006KT 04/M01 A3011 RMK A01 T00361005  RH  075%=      5-min Rain = 0
KEN1 180340Z 15006KT 04/M00 A3011 RMK A01 T00351004  RH  075%=      5-min Rain = 0
KEN1 180341Z 16005KT 03/M01 A301 RMK A01 T00341005  RH  076%=      5-min Rain = 0
KEN1 180342Z 16005KT 03/M00 A301 RMK A01 T00341004  RH  076%=      5-min Rain = 0
KEN1 180343Z 16005KT 03/M00 A301 RMK A01 T00341004  RH  076%=      5-min Rain = 0
KEN1 180344Z 16005KT 03/M01 A301 RMK A01 T00331005  RH  076%=      5-min Rain = 0
KEN1 180345Z 16005KT 03/M01 A301 RMK A01 T00321006  RH  076%=      5-min Rain = 0
KEN1 180346Z 16005KT 03/M01 A301 RMK A01 T00311006  RH  076%=      5-min Rain = 0
KEN1 180347Z 16004KT 03/M01 A301 RMK A01 T00301006  RH  077%=      5-min Rain = 0
KEN1 180348Z 16004KT 03/M01 A301 RMK A01 T00301006  RH  077%=      5-min Rain = 0
KEN1 180349Z 16004KT 03/M01 A301 RMK A01 T00301006  RH  077%=      5-min Rain = 0
KEN1 180350Z 17004KT 03/M01 A301 RMK A01 T00291007  RH  077%=      5-min Rain = 0
KEN1 180351Z 18004KT 03/M01 A301 RMK A01 T00291006  RH  078%=      5-min Rain = 0
KEN1 180352Z 17004KT 03/M01 A301 RMK A01 T00291006  RH  078%=      5-min Rain = 0
KEN1 180353Z 17004KT 03/M01 A301 RMK A01 T00301006  RH  078%=      5-min Rain = 0
KEN1 180354Z 17004KT 03/M00 A301 RMK A01 T00311004  RH  078%=      5-min Rain = 0
KEN1 180355Z 17004KT 03/M00 A301 RMK A01 T00331002  RH  078%=      5-min Rain = 0
KEN1 180356Z 17004KT 04/M00 A301 RMK A01 T00361001  RH  077%=      5-min Rain = 0
KEN1 180357Z 17004KT 04/M00 A301 RMK A01 T00381001  RH  076%=      5-min Rain = 0
KEN1 180358Z 17004KT 04/00 A301 RMK A01 T004000-0  RH  075%=      5-min Rain = 0
KEN1 180359Z 17004KT 04/00 A301 RMK A01 T004100-0  RH  075%=      5-min Rain = 0
KEN1 180400Z 17004KT 04/00 A301 RMK A01 T00420000  RH  074%=      5-min Rain = 0
KEN1 180401Z 17004KT 04/M00 A301 RMK A01 T00431001  RH  073%=      5-min Rain = 0
KEN1 180402Z 17004KT 04/M00 A301 RMK A01 T00421001  RH  073%=      5-min Rain = 0
KEN1 180403Z 17004KT 04/00 A301 RMK A01 T004300-0  RH  073%=      5-min Rain = 0
KEN1 180404Z 17004KT 04/M00 A301 RMK A01 T00431002  RH  073%=      5-min Rain = 0
KEN1 180405Z 17004KT 04/M00 A301 RMK A01 T00411002  RH  073%=      5-min Rain = 0
KEN1 180406Z 17004KT 04/M00 A301 RMK A01 T00401003  RH  073%=      5-min Rain = 0
KEN1 180407Z 17004KT 04/M00 A301 RMK A01 T00381004  RH  074%=      5-min Rain = 0
KEN1 180408Z 17004KT 04/M01 A301 RMK A01 T00371005  RH  074%=      5-min Rain = 0
KEN1 180409Z 18004KT 04/M00 A301 RMK A01 T00361004  RH  075%=      5-min Rain = 0
KEN1 180410Z 18004KT 04/M00 A301 RMK A01 T00351004  RH  075%=      5-min Rain = 0
KEN1 180411Z 18004KT 04/M00 A301 RMK A01 T00351003  RH  076%=      5-min Rain = 0
KEN1 180412Z 18004KT 04/M00 A301 RMK A01 T00351002  RH  076%=      5-min Rain = 0
KEN1 180413Z 18003KT 04/M00 A301 RMK A01 T00361003  RH  076%=      5-min Rain = 0
KEN1 180414Z 18003KT 04/M00 A301 RMK A01 T00361002  RH  076%=      5-min Rain = 0
KEN1 180415Z 18003KT 04/M00 A301 RMK A01 T00361003  RH  075%=      5-min Rain = 0
KEN1 180416Z 18003KT 04/M00 A301 RMK A01 T00361004  RH  075%=      5-min Rain = 0
KEN1 180417Z 18002KT 04/M00 A301 RMK A01 T00361003  RH  076%=      5-min Rain = 0
KEN1 180418Z 17003KT 04/M00 A301 RMK A01 T00351002  RH  076%=      5-min Rain = 0
KEN1 180419Z 17003KT 04/M00 A301 RMK A01 T00371001  RH  076%=      5-min Rain = 0
KEN1 180420Z 16003KT 04/M00 A301 RMK A01 T00381001  RH  076%=      5-min Rain = 0
KEN1 180421Z 17003KT 04/M00 A301 RMK A01 T00401001  RH  075%=      5-min Rain = 0
KEN1 180422Z 16003KT 04/00 A301 RMK A01 T004000-0  RH  075%=      5-min Rain = 0
KEN1 180423Z 16003KT 04/00 A3009 RMK A01 T00410001  RH  075%=      5-min Rain = 0
KEN1 180424Z 15003KT 04/00 A3009 RMK A01 T00430001  RH  074%=      5-min Rain = 0
KEN1 180425Z 16003KT 04/00 A3009 RMK A01 T00440001  RH  073%=      5-min Rain = 0
KEN1 180426Z 16004KT 05/00 A3009 RMK A01 T00460002  RH  073%=      5-min Rain = 0
KEN1 180427Z 15004KT 05/00 A3009 RMK A01 T00480002  RH  072%=      5-min Rain = 0
KEN1 180428Z 15004KT 05/00 A3009 RMK A01 T00480001  RH  072%=      5-min Rain = 0
KEN1 180429Z 15005KT 05/00 A3009 RMK A01 T00480001  RH  071%=      5-min Rain = 0
KEN1 180430Z 14005KT 05/M00 A3009 RMK A01 T00451003  RH  071%=      5-min Rain = 0
KEN1 180431Z 14005KT 04/M01 A3009 RMK A01 T00401005  RH  072%=      5-min Rain = 0
KEN1 180432Z 15005KT 04/M01 A3009 RMK A01 T00371005  RH  074%=      5-min Rain = 0
KEN1 180433Z 15005KT 04/M00 A3009 RMK A01 T00361004  RH  075%=      5-min Rain = 0
KEN1 180434Z 15004KT 04/M00 A3009 RMK A01 T00351003  RH  076%=      5-min Rain = 0
KEN1 180435Z 15005KT 04/M00 A3009 RMK A01 T00351003  RH  076%=      5-min Rain = 0
KEN1 180436Z 14006KT 04/M00 A3009 RMK A01 T00351002  RH  077%=      5-min Rain = 0
KEN1 180437Z 14006KT 04/M00 A3009 RMK A01 T00351002  RH  077%=      5-min Rain = 0
KEN1 180438Z 14006KT 04/M00 A3009 RMK A01 T00351002  RH  077%=      5-min Rain = 0
KEN1 180439Z 15006KT 03/M00 A3009 RMK A01 T00341003  RH  077%=      5-min Rain = 0
KEN1 180440Z 14006KT 03/M00 A3009 RMK A01 T00341003  RH  077%=      5-min Rain = 0
KEN1 180441Z 15005KT 03/M00 A3009 RMK A01 T00341003  RH  077%=      5-min Rain = 0
KEN1 180442Z 14005KT 03/M00 A3009 RMK A01 T00341003  RH  077%=      5-min Rain = 0
KEN1 180443Z 14006KT 04/M00 A3009 RMK A01 T00351002  RH  077%=      5-min Rain = 0
KEN1 180444Z 14006KT 04/M00 A3009 RMK A01 T00351002  RH  077%=      5-min Rain = 0
KEN1 180445Z 15005KT 03/M00 A3009 RMK A01 T00331003  RH  077%=      5-min Rain = 0
KEN1 180446Z 15005KT 03/M00 A3009 RMK A01 T00321004  RH  077%=      5-min Rain = 0
KEN1 180447Z 15005KT 03/M00 A3009 RMK A01 T00311004  RH  077%=      5-min Rain = 0
KEN1 180448Z 15005KT 03/M00 A3008 RMK A01 T00311004  RH  078%=      5-min Rain = 0
KEN1 180449Z 15006KT 03/M00 A3008 RMK A01 T00311004  RH  078%=      5-min Rain = 0
KEN1 180450Z 15007KT 03/M00 A3008 RMK A01 T00311004  RH  078%=      5-min Rain = 0
KEN1 180451Z 15006KT 03/M00 A3008 RMK A01 T00311004  RH  078%=      5-min Rain = 0
KEN1 180452Z 15007KT 03/M00 A3008 RMK A01 T00301004  RH  078%=      5-min Rain = 0
KEN1 180453Z 15007KT 03/M00 A3008 RMK A01 T00311003  RH  078%=      5-min Rain = 0
KEN1 180454Z 15007KT 03/M00 A3008 RMK A01 T00311003  RH  078%=      5-min Rain = 0
KEN1 180455Z 15007KT 03/M00 A3008 RMK A01 T00311003  RH  078%=      5-min Rain = 0
KEN1 180456Z 16007KT 03/M00 A3008 RMK A01 T00321003  RH  078%=      5-min Rain = 0
KEN1 180457Z 16007KT 03/M00 A3008 RMK A01 T00321003  RH  078%=      5-min Rain = 0
KEN1 180458Z 16007KT 03/M00 A3008 RMK A01 T00321003  RH  078%=      5-min Rain = 0
KEN1 180459Z 16007KT 03/M00 A3008 RMK A01 T00321003  RH  078%=      5-min Rain = 0
KEN1 180500Z 16008KT 03/M00 A3008 RMK A01 T00321002  RH  078%=      5-min Rain = 0
KEN1 180501Z 16008KT 03/M00 A3008 RMK A01 T00331002  RH  078%=      5-min Rain = 0
KEN1 180502Z 16008KT 04/M00 A3008 RMK A01 T00351001  RH  077%=      5-min Rain = 0
KEN1 180503Z 16008KT 04/00 A3008 RMK A01 T003600-0  RH  077%=      5-min Rain = 0
KEN1 180504Z 16007KT 04/00 A3008 RMK A01 T003800-0  RH  076%=      5-min Rain = 0
KEN1 180505Z 16007KT 04/00 A3008 RMK A01 T003800-0  RH  076%=      5-min Rain = 0
KEN1 180506Z 16006KT 04/M00 A3008 RMK A01 T00391001  RH  075%=      5-min Rain = 0
KEN1 180507Z 16006KT 04/M00 A3008 RMK A01 T00381002  RH  075%=      5-min Rain = 0
KEN1 180508Z 17007KT 04/M00 A3008 RMK A01 T00381001  RH  076%=      5-min Rain = 0
KEN1 180509Z 17007KT 04/M00 A3007 RMK A01 T00371002  RH  076%=      5-min Rain = 0
KEN1 180510Z 17007KT 04/M00 A3007 RMK A01 T00361002  RH  076%=      5-min Rain = 0
KEN1 180511Z 17007KT 04/M00 A3007 RMK A01 T00361002  RH  076%=      5-min Rain = 0
KEN1 180512Z 17006KT 04/M00 A3007 RMK A01 T00361002  RH  076%=      5-min Rain = 0
KEN1 180513Z 17006KT 04/M00 A3007 RMK A01 T00361002  RH  076%=      5-min Rain = 0
KEN1 180514Z 17006KT 04/M00 A3008 RMK A01 T00351003  RH  076%=      5-min Rain = 0
KEN1 180515Z 17006KT 03/M00 A3008 RMK A01 T00341003  RH  076%=      5-min Rain = 0
KEN1 180516Z 16006KT 03/M00 A3007 RMK A01 T00331004  RH  077%=      5-min Rain = 0
KEN1 180517Z 16006KT 03/M00 A3007 RMK A01 T00331004  RH  077%=      5-min Rain = 0
KEN1 180518Z 17007KT 03/M00 A3007 RMK A01 T00331004  RH  077%=      5-min Rain = 0
KEN1 180519Z 17007KT 03/M00 A3007 RMK A01 T00331004  RH  077%=      5-min Rain = 0
KEN1 180520Z 18006KT 03/M00 A3007 RMK A01 T00331003  RH  077%=      5-min Rain = 0
KEN1 180521Z 18007KT 03/M00 A3007 RMK A01 T00341003  RH  077%=      5-min Rain = 0
KEN1 180522Z 18007KT 04/M00 A3007 RMK A01 T00351003  RH  076%=      5-min Rain = 0
KEN1 180523Z 18007KT 04/M00 A3007 RMK A01 T00361002  RH  076%=      5-min Rain = 0
KEN1 180524Z 18007KT 04/M00 A3007 RMK A01 T00381002  RH  076%=      5-min Rain = 0
KEN1 180525Z 18007KT 04/M00 A3007 RMK A01 T00391002  RH  075%=      5-min Rain = 0
KEN1 180526Z 18007KT 04/M00 A3007 RMK A01 T00391002  RH  074%=      5-min Rain = 0
KEN1 180527Z 18007KT 04/M00 A3007 RMK A01 T00381003  RH  074%=      5-min Rain = 0
KEN1 180528Z 18007KT 04/M00 A3007 RMK A01 T00371004  RH  074%=      5-min Rain = 0
KEN1 180529Z 18007KT 04/M00 A3007 RMK A01 T00361004  RH  075%=      5-min Rain = 0
KEN1 180530Z 18007KT 04/M00 A3007 RMK A01 T00371003  RH  076%=      5-min Rain = 0
KEN1 180531Z 17006KT 04/M00 A3006 RMK A01 T00371003  RH  075%=      5-min Rain = 0
KEN1 180532Z 17007KT 04/M00 A3006 RMK A01 T00381003  RH  075%=      5-min Rain = 0
KEN1 180533Z 17007KT 04/M00 A3006 RMK A01 T00381003  RH  075%=      5-min Rain = 0
KEN1 180534Z 17007KT 04/M00 A3006 RMK A01 T00381003  RH  075%=      5-min Rain = 0
KEN1 180535Z 17007KT 04/M00 A3006 RMK A01 T00391002  RH  075%=      5-min Rain = 0
KEN1 180536Z 17007KT 04/M00 A3006 RMK A01 T00401002  RH  074%=      5-min Rain = 0
KEN1 180537Z 17007KT 04/M00 A3006 RMK A01 T00401002  RH  074%=      5-min Rain = 0
KEN1 180538Z 18007KT 04/M00 A3006 RMK A01 T00401002  RH  074%=      5-min Rain = 0
KEN1 180539Z 16007KT 04/M00 A3006 RMK A01 T00411001  RH  074%=      5-min Rain = 0
KEN1 180540Z 17008KT 04/M00 A3006 RMK A01 T00411001  RH  074%=      5-min Rain = 0
KEN1 180541Z 17008KT 04/M00 A3006 RMK A01 T00401002  RH  074%=      5-min Rain = 0
KEN1 180542Z 17008KT 04/M00 A3006 RMK A01 T00401002  RH  074%=      5-min Rain = 0
KEN1 180543Z 16008KT 04/M00 A3006 RMK A01 T00401002  RH  074%=      5-min Rain = 0
KEN1 180544Z 17008KT 04/M00 A3006 RMK A01 T00391002  RH  074%=      5-min Rain = 0
KEN1 180545Z 17008KT 04/M00 A3006 RMK A01 T00391002  RH  075%=      5-min Rain = 0
KEN1 180546Z 17007KT 04/M00 A3006 RMK A01 T00381002  RH  075%=      5-min Rain = 0
KEN1 180547Z 17008KT 04/M00 A3006 RMK A01 T00401001  RH  075%=      5-min Rain = 0
KEN1 180548Z 18008KT 04/M00 A3006 RMK A01 T00411001  RH  074%=      5-min Rain = 0
KEN1 180549Z 18008KT 04/M00 A3006 RMK A01 T00421001  RH  074%=      5-min Rain = 0
KEN1 180550Z 18008KT 04/M00 A3006 RMK A01 T00431001  RH  073%=      5-min Rain = 0
KEN1 180551Z 18008KT 04/00 A3006 RMK A01 T004300-0  RH  073%=      5-min Rain = 0
KEN1 180552Z 18008KT 04/00 A3006 RMK A01 T00430000  RH  074%=      5-min Rain = 0
KEN1 180553Z 18008KT 04/00 A3006 RMK A01 T00440002  RH  074%=      5-min Rain = 0
KEN1 180554Z 18007KT 05/00 A3005 RMK A01 T00470003  RH  073%=      5-min Rain = 0
KEN1 180555Z 18007KT 05/00 A3005 RMK A01 T00480002  RH  072%=      5-min Rain = 0
KEN1 180556Z 18007KT 05/00 A3005 RMK A01 T00480001  RH  072%=      5-min Rain = 0
KEN1 180557Z 18007KT 05/00 A3005 RMK A01 T00470000  RH  072%=      5-min Rain = 0
KEN1 180558Z 18008KT 05/M00 A3005 RMK A01 T00461001  RH  072%=      5-min Rain = 0
KEN1 180559Z 18007KT 04/M00 A3005 RMK A01 T00441001  RH  073%=      5-min Rain = 0

Page generated in 0.131 seconds.